Observation data for Mertzon on 02/24/2021      Previous  Date  Next       Current Mesonet Observations  Soil Data  Daily Summary Page  Observations in Plain Language
KME1 240600Z 22010KT 15/10 A2992 RMK A01 T01500100  RH  072%=      5-min Rain = 0
KME1 240601Z 21011KT 15/10 A2992 RMK A01 T01500100  RH  072%=      5-min Rain = 0
KME1 240602Z 22012KT 15/10 A2992 RMK A01 T01500100  RH  072%=      5-min Rain = 0
KME1 240603Z 22012KT 15/10 A2992 RMK A01 T01500100  RH  072%=      5-min Rain = 0
KME1 240604Z 21012KT 15/10 A2992 RMK A01 T01500100  RH  072%=      5-min Rain = 0
KME1 240605Z 21012KT 15/10 A2992 RMK A01 T01490100  RH  072%=      5-min Rain = 0
KME1 240606Z 21012G17KT 15/10 A2992 RMK A01 T01500100  RH  072%=      5-min Rain = 0
KME1 240607Z 22012KT 15/10 A2992 RMK A01 T01490100  RH  072%=      5-min Rain = 0
KME1 240608Z 21012KT 15/10 A2992 RMK A01 T01500100  RH  072%=      5-min Rain = 0
KME1 240609Z 21013KT 15/10 A2992 RMK A01 T01500100  RH  072%=      5-min Rain = 0
KME1 240610Z 21011KT 15/10 A2992 RMK A01 T01500100  RH  072%=      5-min Rain = 0
KME1 240611Z 21011KT 15/10 A2992 RMK A01 T01500100  RH  072%=      5-min Rain = 0
KME1 240612Z 21013KT 15/10 A2992 RMK A01 T01500100  RH  072%=      5-min Rain = 0
KME1 240613Z 21013KT 15/10 A2992 RMK A01 T01500101  RH  072%=      5-min Rain = 0
KME1 240614Z 22013KT 15/10 A2992 RMK A01 T01510101  RH  072%=      5-min Rain = 0
KME1 240615Z 22011KT 15/10 A2992 RMK A01 T01520101  RH  072%=      5-min Rain = 0
KME1 240616Z 22010KT 15/10 A2992 RMK A01 T01520101  RH  072%=      5-min Rain = 0
KME1 240617Z 22010KT 15/10 A2992 RMK A01 T01530102  RH  072%=      5-min Rain = 0
KME1 240618Z 23011KT 15/10 A2992 RMK A01 T01530102  RH  071%=      5-min Rain = 0
KME1 240619Z 22009KT 15/10 A2992 RMK A01 T01530102  RH  071%=      5-min Rain = 0
KME1 240620Z 21009KT 15/10 A2992 RMK A01 T01540102  RH  071%=      5-min Rain = 0
KME1 240621Z 21012KT 15/10 A2992 RMK A01 T01530102  RH  071%=      5-min Rain = 0
KME1 240622Z 21013KT 15/10 A2992 RMK A01 T01540102  RH  071%=      5-min Rain = 0
KME1 240623Z 21012KT 16/10 A2992 RMK A01 T01550103  RH  071%=      5-min Rain = 0
KME1 240624Z 21014G20KT 16/10 A2992 RMK A01 T01550103  RH  071%=      5-min Rain = 0
KME1 240625Z 20013KT 16/10 A2992 RMK A01 T01570103  RH  070%=      5-min Rain = 0
KME1 240626Z 20016KT 16/10 A2992 RMK A01 T01580103  RH  070%=      5-min Rain = 0
KME1 240627Z 21016KT 16/10 A2992 RMK A01 T01600104  RH  070%=      5-min Rain = 0
KME1 240628Z 21014KT 16/10 A2992 RMK A01 T01610104  RH  069%=      5-min Rain = 0
KME1 240629Z 20018G25KT 16/10 A2992 RMK A01 T01610104  RH  069%=      5-min Rain = 0
KME1 240630Z 20019G24KT 16/11 A2992 RMK A01 T01620105  RH  069%=      5-min Rain = 0
KME1 240631Z 20019KT 17/11 A2992 RMK A01 T01650105  RH  068%=      5-min Rain = 0
KME1 240632Z 21020KT 17/11 A2992 RMK A01 T01670106  RH  067%=      5-min Rain = 0
KME1 240633Z 21019G24KT 17/11 A2992 RMK A01 T01680106  RH  067%=      5-min Rain = 0
KME1 240634Z 21018KT 17/11 A2992 RMK A01 T01680105  RH  066%=      5-min Rain = 0
KME1 240635Z 22016KT 17/11 A2993 RMK A01 T01680105  RH  066%=      5-min Rain = 0
KME1 240636Z 22015G20KT 17/11 A2993 RMK A01 T01680105  RH  066%=      5-min Rain = 0
KME1 240637Z 21013KT 17/11 A2993 RMK A01 T01670105  RH  067%=      5-min Rain = 0
KME1 240638Z 22012KT 17/10 A2993 RMK A01 T01650104  RH  067%=      5-min Rain = 0
KME1 240639Z 21013KT 16/10 A2993 RMK A01 T01640104  RH  068%=      5-min Rain = 0
KME1 240640Z 21013KT 16/10 A2993 RMK A01 T01630104  RH  068%=      5-min Rain = 0
KME1 240641Z 22012KT 16/10 A2993 RMK A01 T01620104  RH  068%=      5-min Rain = 0
KME1 240642Z 21012G17KT 16/10 A2993 RMK A01 T01610104  RH  069%=      5-min Rain = 0
KME1 240643Z 21012KT 16/10 A2993 RMK A01 T01610104  RH  069%=      5-min Rain = 0
KME1 240644Z 20011KT 16/10 A2992 RMK A01 T01600103  RH  069%=      5-min Rain = 0
KME1 240645Z 21013G20KT 16/10 A2992 RMK A01 T01590103  RH  069%=      5-min Rain = 0
KME1 240646Z 20015G20KT 16/10 A2992 RMK A01 T01590103  RH  069%=      5-min Rain = 0
KME1 240647Z 20014KT 16/10 A2992 RMK A01 T01600104  RH  069%=      5-min Rain = 0
KME1 240648Z 20012KT 16/10 A2992 RMK A01 T01590104  RH  069%=      5-min Rain = 0
KME1 240649Z 20014KT 16/10 A2992 RMK A01 T01580103  RH  070%=      5-min Rain = 0
KME1 240650Z 20015KT 16/10 A2992 RMK A01 T01590104  RH  070%=      5-min Rain = 0
KME1 240651Z 20015G22KT 16/10 A2992 RMK A01 T01590103  RH  069%=      5-min Rain = 0
KME1 240652Z 20015KT 16/10 A2992 RMK A01 T01600104  RH  069%=      5-min Rain = 0
KME1 240653Z 21014KT 16/10 A2992 RMK A01 T01610104  RH  069%=      5-min Rain = 0
KME1 240654Z 21014G19KT 16/10 A2992 RMK A01 T01620104  RH  069%=      5-min Rain = 0
KME1 240655Z 21014KT 16/11 A2992 RMK A01 T01620105  RH  069%=      5-min Rain = 0
KME1 240656Z 21013G18KT 16/10 A2992 RMK A01 T01620104  RH  069%=      5-min Rain = 0
KME1 240657Z 21012KT 16/10 A2993 RMK A01 T01620104  RH  069%=      5-min Rain = 0
KME1 240658Z 22014KT 16/11 A2993 RMK A01 T01620105  RH  069%=      5-min Rain = 0
KME1 240659Z 22012KT 16/10 A2993 RMK A01 T01610104  RH  069%=      5-min Rain = 0
KME1 240700Z 21015KT 16/10 A2993 RMK A01 T01610104  RH  069%=      5-min Rain = 0
KME1 240701Z 21014KT 16/10 A2992 RMK A01 T01610104  RH  069%=      5-min Rain = 0
KME1 240702Z 21013KT 16/10 A2992 RMK A01 T01610104  RH  069%=      5-min Rain = 0
KME1 240703Z 21012KT 16/10 A2992 RMK A01 T01610104  RH  069%=      5-min Rain = 0
KME1 240704Z 20012KT 16/10 A2992 RMK A01 T01590104  RH  069%=      5-min Rain = 0
KME1 240705Z 21013KT 16/10 A2992 RMK A01 T01580103  RH  070%=      5-min Rain = 0
KME1 240706Z 21013KT 16/10 A2992 RMK A01 T01590104  RH  070%=      5-min Rain = 0
KME1 240707Z 21012KT 16/10 A2992 RMK A01 T01590103  RH  070%=      5-min Rain = 0
KME1 240708Z 21010KT 16/10 A2992 RMK A01 T01580103  RH  070%=      5-min Rain = 0
KME1 240709Z 21011KT 16/10 A2992 RMK A01 T01570104  RH  070%=      5-min Rain = 0
KME1 240710Z 21012KT 16/10 A2992 RMK A01 T01570104  RH  071%=      5-min Rain = 0
KME1 240711Z 21011KT 16/10 A2992 RMK A01 T01560104  RH  071%=      5-min Rain = 0
KME1 240712Z 20012KT 16/10 A2992 RMK A01 T01560103  RH  071%=      5-min Rain = 0
KME1 240713Z 20012KT 16/10 A2992 RMK A01 T01560103  RH  071%=      5-min Rain = 0
KME1 240714Z 21012KT 16/10 A2992 RMK A01 T01560103  RH  071%=      5-min Rain = 0
KME1 240715Z 21014KT 16/10 A2992 RMK A01 T01560104  RH  071%=      5-min Rain = 0
KME1 240716Z 21013KT 16/10 A2992 RMK A01 T01560104  RH  071%=      5-min Rain = 0
KME1 240717Z 21011KT 16/10 A2992 RMK A01 T01570104  RH  071%=      5-min Rain = 0
KME1 240718Z 21011KT 16/10 A2992 RMK A01 T01560104  RH  071%=      5-min Rain = 0
KME1 240719Z 21011G16KT 16/10 A2992 RMK A01 T01560104  RH  071%=      5-min Rain = 0
KME1 240720Z 21012KT 16/10 A2992 RMK A01 T01550104  RH  071%=      5-min Rain = 0
KME1 240721Z 21013KT 16/10 A2992 RMK A01 T01560104  RH  071%=      5-min Rain = 0
KME1 240722Z 21012KT 16/10 A2992 RMK A01 T01570104  RH  071%=      5-min Rain = 0
KME1 240723Z 21012KT 16/10 A2992 RMK A01 T01570104  RH  071%=      5-min Rain = 0
KME1 240724Z 21011KT 16/10 A2992 RMK A01 T01570104  RH  071%=      5-min Rain = 0
KME1 240725Z 21011KT 16/10 A2992 RMK A01 T01560104  RH  071%=      5-min Rain = 0
KME1 240726Z 22011KT 16/10 A2992 RMK A01 T01550104  RH  071%=      5-min Rain = 0
KME1 240727Z 21010KT 16/10 A2992 RMK A01 T01550104  RH  071%=      5-min Rain = 0
KME1 240728Z 21012KT 16/10 A2992 RMK A01 T01550104  RH  072%=      5-min Rain = 0
KME1 240729Z 21012KT 15/10 A2992 RMK A01 T01540104  RH  072%=      5-min Rain = 0
KME1 240730Z 21013KT 15/10 A2992 RMK A01 T01540104  RH  072%=      5-min Rain = 0
KME1 240731Z 21012KT 16/10 A2992 RMK A01 T01550104  RH  072%=      5-min Rain = 0
KME1 240732Z 21012KT 16/10 A2992 RMK A01 T01550104  RH  072%=      5-min Rain = 0
KME1 240733Z 21011G16KT 16/10 A2992 RMK A01 T01550104  RH  072%=      5-min Rain = 0
KME1 240734Z 21010KT 16/10 A2992 RMK A01 T01550104  RH  072%=      5-min Rain = 0
KME1 240735Z 21011KT 16/10 A2992 RMK A01 T01550104  RH  072%=      5-min Rain = 0
KME1 240736Z 20012KT 15/10 A2992 RMK A01 T01540104  RH  072%=      5-min Rain = 0
KME1 240737Z 20012KT 16/10 A2992 RMK A01 T01550104  RH  072%=      5-min Rain = 0
KME1 240738Z 20011KT 15/10 A2992 RMK A01 T01540104  RH  072%=      5-min Rain = 0
KME1 240739Z 20013KT 16/10 A2992 RMK A01 T01550104  RH  072%=      5-min Rain = 0
KME1 240740Z 20012KT 16/10 A2992 RMK A01 T01550104  RH  072%=      5-min Rain = 0
KME1 240741Z 20011KT 16/10 A2992 RMK A01 T01550104  RH  072%=      5-min Rain = 0
KME1 240742Z 20010KT 16/10 A2992 RMK A01 T01550104  RH  072%=      5-min Rain = 0
KME1 240743Z 20013KT 15/10 A2992 RMK A01 T01540104  RH  072%=      5-min Rain = 0
KME1 240744Z 20012KT 15/11 A2992 RMK A01 T01540105  RH  072%=      5-min Rain = 0
KME1 240745Z 20013KT 15/10 A2992 RMK A01 T01540104  RH  072%=      5-min Rain = 0
KME1 240746Z 20012KT 15/11 A2992 RMK A01 T01540105  RH  072%=      5-min Rain = 0
KME1 240747Z 21012KT 16/11 A2992 RMK A01 T01550105  RH  072%=      5-min Rain = 0
KME1 240748Z 21012KT 16/11 A2993 RMK A01 T01550105  RH  072%=      5-min Rain = 0
KME1 240749Z 21011KT 15/11 A2993 RMK A01 T01540105  RH  072%=      5-min Rain = 0
KME1 240750Z 21013KT 15/11 A2993 RMK A01 T01540105  RH  073%=      5-min Rain = 0
KME1 240751Z 20013KT 15/11 A2993 RMK A01 T01540105  RH  073%=      5-min Rain = 0
KME1 240752Z 21012KT 15/11 A2993 RMK A01 T01540105  RH  073%=      5-min Rain = 0
KME1 240753Z 21012KT 15/11 A2993 RMK A01 T01540105  RH  073%=      5-min Rain = 0
KME1 240754Z 20011KT 15/11 A2993 RMK A01 T01540105  RH  073%=      5-min Rain = 0
KME1 240755Z 20012KT 15/11 A2993 RMK A01 T01530105  RH  073%=      5-min Rain = 0
KME1 240756Z 20011KT 15/11 A2992 RMK A01 T01530105  RH  073%=      5-min Rain = 0
KME1 240757Z 20013KT 15/11 A2992 RMK A01 T01540105  RH  073%=      5-min Rain = 0
KME1 240758Z 20012KT 15/11 A2992 RMK A01 T01540105  RH  072%=      5-min Rain = 0
KME1 240759Z 20011KT 15/11 A2992 RMK A01 T01540105  RH  072%=      5-min Rain = 0
KME1 240800Z 20013KT 15/11 A2992 RMK A01 T01530105  RH  073%=      5-min Rain = 0
KME1 240801Z 20013KT 15/11 A2992 RMK A01 T01530105  RH  073%=      5-min Rain = 0
KME1 240802Z 20012KT 15/11 A2992 RMK A01 T01530105  RH  073%=      5-min Rain = 0
KME1 240803Z 20012KT 15/11 A2992 RMK A01 T01540105  RH  073%=      5-min Rain = 0
KME1 240804Z 20009KT 15/11 A2992 RMK A01 T01540105  RH  073%=      5-min Rain = 0
KME1 240805Z 20012KT 15/11 A2992 RMK A01 T01530105  RH  073%=      5-min Rain = 0
KME1 240806Z 20012KT 15/11 A2992 RMK A01 T01530105  RH  073%=      5-min Rain = 0
KME1 240807Z 20013KT 15/11 A2992 RMK A01 T01520105  RH  073%=      5-min Rain = 0
KME1 240808Z 20012KT 15/11 A2992 RMK A01 T01520105  RH  073%=      5-min Rain = 0
KME1 240809Z 20013KT 15/11 A2992 RMK A01 T01520105  RH  073%=      5-min Rain = 0
KME1 240810Z 20012G17KT 15/11 A2992 RMK A01 T01520105  RH  073%=      5-min Rain = 0
KME1 240811Z 20013KT 15/11 A2992 RMK A01 T01510105  RH  074%=      5-min Rain = 0
KME1 240812Z 21014KT 15/11 A2992 RMK A01 T01510105  RH  074%=      5-min Rain = 0
KME1 240813Z 21013KT 15/11 A2992 RMK A01 T01520105  RH  074%=      5-min Rain = 0
KME1 240814Z 21013KT 15/11 A2993 RMK A01 T01520105  RH  074%=      5-min Rain = 0
KME1 240815Z 21012KT 15/11 A2993 RMK A01 T01520105  RH  074%=      5-min Rain = 0
KME1 240816Z 20014KT 15/11 A2993 RMK A01 T01510105  RH  074%=      5-min Rain = 0
KME1 240817Z 21013KT 15/11 A2993 RMK A01 T01510105  RH  074%=      5-min Rain = 0
KME1 240818Z 21013KT 15/11 A2993 RMK A01 T01510105  RH  074%=      5-min Rain = 0
KME1 240819Z 20014KT 15/11 A2993 RMK A01 T01510105  RH  074%=      5-min Rain = 0
KME1 240820Z 20013KT 15/11 A2993 RMK A01 T01510106  RH  074%=      5-min Rain = 0
KME1 240821Z 20014KT 15/11 A2993 RMK A01 T01510106  RH  074%=      5-min Rain = 0
KME1 240822Z 20012KT 15/11 A2993 RMK A01 T01510106  RH  074%=      5-min Rain = 0
KME1 240823Z 20015KT 15/11 A2992 RMK A01 T01510105  RH  074%=      5-min Rain = 0
KME1 240824Z 20013KT 15/11 A2993 RMK A01 T01510106  RH  074%=      5-min Rain = 0
KME1 240825Z 20012KT 15/11 A2993 RMK A01 T01510105  RH  074%=      5-min Rain = 0
KME1 240826Z 20012KT 15/11 A2993 RMK A01 T01500105  RH  074%=      5-min Rain = 0
KME1 240827Z 21013G18KT 15/11 A2993 RMK A01 T01490105  RH  075%=      5-min Rain = 0
KME1 240828Z 21014KT 15/11 A2993 RMK A01 T01490106  RH  075%=      5-min Rain = 0
KME1 240829Z 20012KT 15/11 A2992 RMK A01 T01500106  RH  075%=      5-min Rain = 0
KME1 240830Z 20012KT 15/11 A2993 RMK A01 T01500106  RH  075%=      5-min Rain = 0
KME1 240831Z 20011KT 15/11 A2993 RMK A01 T01490105  RH  075%=      5-min Rain = 0
KME1 240832Z 20012KT 15/11 A2993 RMK A01 T01490106  RH  075%=      5-min Rain = 0
KME1 240833Z 21012KT 15/11 A2993 RMK A01 T01490106  RH  076%=      5-min Rain = 0
KME1 240834Z 21014KT 15/11 A2993 RMK A01 T01490106  RH  075%=      5-min Rain = 0
KME1 240835Z 20011G16KT 15/11 A2993 RMK A01 T01500107  RH  075%=      5-min Rain = 0
KME1 240836Z 21012KT 15/11 A2993 RMK A01 T01500107  RH  075%=      5-min Rain = 0
KME1 240837Z 20013KT 15/11 A2992 RMK A01 T01500107  RH  075%=      5-min Rain = 0
KME1 240838Z 20013KT 15/11 A2992 RMK A01 T01500107  RH  075%=      5-min Rain = 0
KME1 240839Z 20013KT 15/11 A2992 RMK A01 T01510107  RH  075%=      5-min Rain = 0
KME1 240840Z 20011KT 15/11 A2992 RMK A01 T01510107  RH  075%=      5-min Rain = 0
KME1 240841Z 20011KT 15/11 A2993 RMK A01 T01500107  RH  075%=      5-min Rain = 0
KME1 240842Z 20012KT 15/11 A2993 RMK A01 T01500107  RH  076%=      5-min Rain = 0
KME1 240843Z 21011KT 15/11 A2993 RMK A01 T01500108  RH  076%=      5-min Rain = 0
KME1 240844Z 21009KT 15/11 A2993 RMK A01 T01500107  RH  076%=      5-min Rain = 0
KME1 240845Z 21010KT 15/11 A2993 RMK A01 T01490107  RH  076%=      5-min Rain = 0
KME1 240846Z 21010KT 15/11 A2993 RMK A01 T01490108  RH  076%=      5-min Rain = 0
KME1 240847Z 20011KT 15/11 A2993 RMK A01 T01490107  RH  076%=      5-min Rain = 0
KME1 240848Z 20011KT 15/11 A2993 RMK A01 T01490108  RH  076%=      5-min Rain = 0
KME1 240849Z 20011KT 15/11 A2993 RMK A01 T01490108  RH  076%=      5-min Rain = 0
KME1 240850Z 21013KT 15/11 A2993 RMK A01 T01490108  RH  077%=      5-min Rain = 0
KME1 240851Z 20011KT 15/11 A2992 RMK A01 T01490108  RH  076%=      5-min Rain = 0
KME1 240852Z 20010KT 15/11 A2992 RMK A01 T01500108  RH  076%=      5-min Rain = 0
KME1 240853Z 20011KT 15/11 A2992 RMK A01 T01490108  RH  076%=      5-min Rain = 0
KME1 240854Z 21012KT 15/11 A2992 RMK A01 T01490109  RH  077%=      5-min Rain = 0
KME1 240855Z 20012KT 15/11 A2992 RMK A01 T01490108  RH  077%=      5-min Rain = 0
KME1 240856Z 20011KT 15/11 A2992 RMK A01 T01490109  RH  077%=      5-min Rain = 0
KME1 240857Z 20012KT 15/11 A2993 RMK A01 T01490108  RH  077%=      5-min Rain = 0
KME1 240858Z 20011KT 15/11 A2992 RMK A01 T01490108  RH  077%=      5-min Rain = 0
KME1 240859Z 20012KT 15/11 A2992 RMK A01 T01480108  RH  077%=      5-min Rain = 0
KME1 240900Z 20012G17KT 15/11 A2992 RMK A01 T01480108  RH  077%=      5-min Rain = 0
KME1 240901Z 20012KT 15/11 A2992 RMK A01 T01480108  RH  077%=      5-min Rain = 0
KME1 240902Z 20013KT 15/11 A2993 RMK A01 T01480108  RH  077%=      5-min Rain = 0
KME1 240903Z 20011G16KT 15/11 A2993 RMK A01 T01480108  RH  077%=      5-min Rain = 0
KME1 240904Z 20012KT 15/11 A2993 RMK A01 T01480109  RH  077%=      5-min Rain = 0
KME1 240905Z 20013KT 15/11 A2993 RMK A01 T01480109  RH  077%=      5-min Rain = 0
KME1 240906Z 20013KT 15/11 A2992 RMK A01 T01480109  RH  077%=      5-min Rain = 0
KME1 240907Z 20013KT 15/11 A2992 RMK A01 T01480109  RH  077%=      5-min Rain = 0
KME1 240908Z 20012KT 15/11 A2992 RMK A01 T01480109  RH  077%=      5-min Rain = 0
KME1 240909Z 20012KT 15/11 A2992 RMK A01 T01470108  RH  077%=      5-min Rain = 0
KME1 240910Z 20013KT 15/11 A2992 RMK A01 T01470108  RH  078%=      5-min Rain = 0
KME1 240911Z 20012KT 15/11 A2992 RMK A01 T01470109  RH  078%=      5-min Rain = 0
KME1 240912Z 20011KT 15/11 A2992 RMK A01 T01470109  RH  078%=      5-min Rain = 0
KME1 240913Z 20011KT 15/11 A2992 RMK A01 T01460108  RH  078%=      5-min Rain = 0
KME1 240914Z 20011KT 15/11 A2992 RMK A01 T01450108  RH  079%=      5-min Rain = 0
KME1 240915Z 21011KT 14/11 A2993 RMK A01 T01440108  RH  079%=      5-min Rain = 0
KME1 240916Z 20011KT 14/11 A2993 RMK A01 T01440108  RH  079%=      5-min Rain = 0
KME1 240917Z 20010KT 14/11 A2993 RMK A01 T01440109  RH  079%=      5-min Rain = 0
KME1 240918Z 20011KT 14/11 A2993 RMK A01 T01440109  RH  079%=      5-min Rain = 0
KME1 240919Z 20011KT 14/11 A2993 RMK A01 T01430109  RH  080%=      5-min Rain = 0
KME1 240920Z 20012KT 14/11 A2993 RMK A01 T01430109  RH  080%=      5-min Rain = 0
KME1 240921Z 20011G16KT 14/11 A2993 RMK A01 T01430109  RH  080%=      5-min Rain = 0
KME1 240922Z 20012KT 14/11 A2993 RMK A01 T01430109  RH  080%=      5-min Rain = 0
KME1 240923Z 20011KT 14/11 A2993 RMK A01 T01430109  RH  080%=      5-min Rain = 0
KME1 240924Z 20010KT 14/11 A2993 RMK A01 T01440109  RH  080%=      5-min Rain = 0
KME1 240925Z 20013KT 14/11 A2993 RMK A01 T01440110  RH  080%=      5-min Rain = 0
KME1 240926Z 20013KT 14/11 A2993 RMK A01 T01440110  RH  080%=      5-min Rain = 0
KME1 240927Z 19012KT 15/11 A2993 RMK A01 T01450110  RH  079%=      5-min Rain = 0
KME1 240928Z 19012KT 15/11 A2993 RMK A01 T01450110  RH  079%=      5-min Rain = 0
KME1 240929Z 20011KT 14/11 A2993 RMK A01 T01440109  RH  080%=      5-min Rain = 0
KME1 240930Z 19012KT 14/11 A2992 RMK A01 T01430109  RH  080%=      5-min Rain = 0
KME1 240931Z 19013KT 14/11 A2993 RMK A01 T01420109  RH  080%=      5-min Rain = 0
KME1 240932Z 20013KT 14/11 A2993 RMK A01 T01420109  RH  081%=      5-min Rain = 0
KME1 240933Z 19011KT 14/11 A2993 RMK A01 T01420110  RH  081%=      5-min Rain = 0
KME1 240934Z 20013KT 14/11 A2993 RMK A01 T01420110  RH  081%=      5-min Rain = 0
KME1 240935Z 19012KT 14/11 A2993 RMK A01 T01420109  RH  081%=      5-min Rain = 0
KME1 240936Z 20014KT 14/11 A2992 RMK A01 T01420109  RH  081%=      5-min Rain = 0
KME1 240937Z 20012KT 14/11 A2993 RMK A01 T01420110  RH  081%=      5-min Rain = 0
KME1 240938Z 20012KT 14/11 A2993 RMK A01 T01420110  RH  081%=      5-min Rain = 0
KME1 240939Z 20011KT 14/11 A2993 RMK A01 T01420110  RH  081%=      5-min Rain = 0
KME1 240940Z 20011KT 14/11 A2993 RMK A01 T01420110  RH  081%=      5-min Rain = 0
KME1 240941Z 20012KT 14/11 A2993 RMK A01 T01410110  RH  081%=      5-min Rain = 0
KME1 240942Z 20011KT 14/11 A2993 RMK A01 T01410110  RH  082%=      5-min Rain = 0
KME1 240943Z 20013KT 14/11 A2993 RMK A01 T01410110  RH  082%=      5-min Rain = 0
KME1 240944Z 19012KT 14/11 A2993 RMK A01 T01410110  RH  082%=      5-min Rain = 0
KME1 240945Z 20012G17KT 14/11 A2993 RMK A01 T01410110  RH  082%=      5-min Rain = 0
KME1 240946Z 20014KT 14/11 A2993 RMK A01 T01410111  RH  082%=      5-min Rain = 0
KME1 240947Z 20012KT 14/11 A2993 RMK A01 T01420111  RH  082%=      5-min Rain = 0
KME1 240948Z 20011KT 14/11 A2993 RMK A01 T01420110  RH  081%=      5-min Rain = 0
KME1 240949Z 20013KT 14/11 A2993 RMK A01 T01410111  RH  082%=      5-min Rain = 0
KME1 240950Z 20012KT 14/11 A2993 RMK A01 T01410111  RH  082%=      5-min Rain = 0
KME1 240951Z 20013KT 14/11 A2993 RMK A01 T01410111  RH  082%=      5-min Rain = 0
KME1 240952Z 20012G17KT 14/11 A2993 RMK A01 T01410111  RH  082%=      5-min Rain = 0
KME1 240953Z 20013G18KT 14/11 A2993 RMK A01 T01410111  RH  082%=      5-min Rain = 0
KME1 240954Z 20012KT 14/11 A2993 RMK A01 T01410111  RH  082%=      5-min Rain = 0
KME1 240955Z 20013G19KT 14/11 A2993 RMK A01 T01410111  RH  082%=      5-min Rain = 0
KME1 240956Z 20012KT 14/11 A2993 RMK A01 T01410112  RH  083%=      5-min Rain = 0
KME1 240957Z 20012KT 14/11 A2993 RMK A01 T01410112  RH  083%=      5-min Rain = 0
KME1 240958Z 20011KT 14/11 A2993 RMK A01 T01410112  RH  082%=      5-min Rain = 0
KME1 240959Z 20013KT 14/11 A2993 RMK A01 T01410113  RH  083%=      5-min Rain = 0
KME1 241000Z 20012KT 14/11 A2993 RMK A01 T01410112  RH  083%=      5-min Rain = 0
KME1 241001Z 20012KT 14/11 A2993 RMK A01 T01410112  RH  083%=      5-min Rain = 0
KME1 241002Z 20013G18KT 14/11 A2993 RMK A01 T01410113  RH  083%=      5-min Rain = 0
KME1 241003Z 20012KT 14/11 A2993 RMK A01 T01410113  RH  083%=      5-min Rain = 0
KME1 241004Z 20012KT 14/11 A2993 RMK A01 T01410113  RH  084%=      5-min Rain = 0
KME1 241005Z 20013KT 14/11 A2993 RMK A01 T01410114  RH  084%=      5-min Rain = 0
KME1 241006Z 20012KT 14/11 A2993 RMK A01 T01410113  RH  083%=      5-min Rain = 0
KME1 241007Z 20012KT 14/11 A2993 RMK A01 T01410114  RH  084%=      5-min Rain = 0
KME1 241008Z 20012KT 14/11 A2993 RMK A01 T01410114  RH  084%=      5-min Rain = 0
KME1 241009Z 20012KT 14/12 A2993 RMK A01 T01420115  RH  084%=      5-min Rain = 0
KME1 241010Z 20012G17KT 14/11 A2993 RMK A01 T01420114  RH  083%=      5-min Rain = 0
KME1 241011Z 20012G17KT 14/12 A2993 RMK A01 T01420115  RH  084%=      5-min Rain = 0
KME1 241012Z 20012KT 14/12 A2993 RMK A01 T01420115  RH  084%=      5-min Rain = 0
KME1 241013Z 20013KT 14/12 A2993 RMK A01 T01420115  RH  084%=      5-min Rain = 0
KME1 241014Z 20013KT 14/11 A2993 RMK A01 T01420114  RH  084%=      5-min Rain = 0
KME1 241015Z 20012KT 14/12 A2993 RMK A01 T01420115  RH  084%=      5-min Rain = 0
KME1 241016Z 20010KT 14/12 A2993 RMK A01 T01420115  RH  084%=      5-min Rain = 0
KME1 241017Z 20012KT 14/11 A2993 RMK A01 T01410114  RH  084%=      5-min Rain = 0
KME1 241018Z 20013KT 14/12 A2993 RMK A01 T01400115  RH  085%=      5-min Rain = 0
KME1 241019Z 20010KT 14/12 A2993 RMK A01 T01410115  RH  084%=      5-min Rain = 0
KME1 241020Z 20012KT 14/12 A2993 RMK A01 T01400115  RH  085%=      5-min Rain = 0
KME1 241021Z 20010KT 14/12 A2993 RMK A01 T01400115  RH  085%=      5-min Rain = 0
KME1 241022Z 20012KT 14/12 A2994 RMK A01 T01390115  RH  085%=      5-min Rain = 0
KME1 241023Z 20012KT 14/12 A2994 RMK A01 T01390116  RH  086%=      5-min Rain = 0
KME1 241024Z 19012KT 14/12 A2994 RMK A01 T01390116  RH  086%=      5-min Rain = 0
KME1 241025Z 20013KT 14/12 A2994 RMK A01 T01390116  RH  086%=      5-min Rain = 0
KME1 241026Z 20013KT 14/12 A2994 RMK A01 T01390115  RH  086%=      5-min Rain = 0
KME1 241027Z 20013KT 14/12 A2994 RMK A01 T01390116  RH  086%=      5-min Rain = 0
KME1 241028Z 20012KT 14/12 A2994 RMK A01 T01390116  RH  086%=      5-min Rain = 0
KME1 241029Z 20012KT 14/12 A2994 RMK A01 T01390116  RH  086%=      5-min Rain = 0
KME1 241030Z 20011KT 14/12 A2994 RMK A01 T01380116  RH  086%=      5-min Rain = 0
KME1 241031Z 20010KT 14/12 A2994 RMK A01 T01380116  RH  087%=      5-min Rain = 0
KME1 241032Z 20011KT 14/12 A2994 RMK A01 T01370117  RH  088%=      5-min Rain = 0
KME1 241033Z 20010KT 14/12 A2994 RMK A01 T01370117  RH  088%=      5-min Rain = 0
KME1 241034Z 20011KT 14/12 A2994 RMK A01 T01370117  RH  088%=      5-min Rain = 0
KME1 241035Z 20011KT 14/12 A2994 RMK A01 T01370118  RH  088%=      5-min Rain = 0
KME1 241036Z 20011KT 14/12 A2994 RMK A01 T01370118  RH  089%=      5-min Rain = 0
KME1 241037Z 20010KT 14/12 A2994 RMK A01 T01370118  RH  088%=      5-min Rain = 0
KME1 241038Z 20010KT 14/12 A2994 RMK A01 T01370118  RH  089%=      5-min Rain = 0
KME1 241039Z 20010KT 14/12 A2994 RMK A01 T01360117  RH  088%=      5-min Rain = 0
KME1 241040Z 20012KT 14/12 A2994 RMK A01 T01350119  RH  090%=      5-min Rain = 0
KME1 241041Z 20012KT 14/12 A2994 RMK A01 T01350119  RH  090%=      5-min Rain = 0
KME1 241042Z 19011KT 14/12 A2994 RMK A01 T01350120  RH  090%=      5-min Rain = 0
KME1 241043Z 20011KT 14/12 A2994 RMK A01 T01350120  RH  091%=      5-min Rain = 0
KME1 241044Z 20010KT 14/12 A2994 RMK A01 T01350121  RH  091%=      5-min Rain = 0
KME1 241045Z 20009KT 14/12 A2995 RMK A01 T01350120  RH  091%=      5-min Rain = 0
KME1 241046Z 20011KT 13/12 A2995 RMK A01 T01340121  RH  092%=      5-min Rain = 0
KME1 241047Z 20010KT 13/12 A2995 RMK A01 T01340121  RH  092%=      5-min Rain = 0
KME1 241048Z 20009KT 13/12 A2995 RMK A01 T01340120  RH  091%=      5-min Rain = 0
KME1 241049Z 20010KT 13/12 A2995 RMK A01 T01330121  RH  092%=      5-min Rain = 0
KME1 241050Z 20010KT 13/12 A2995 RMK A01 T01330121  RH  093%=      5-min Rain = 0
KME1 241051Z 20011KT 13/12 A2995 RMK A01 T01320121  RH  093%=      5-min Rain = 0
KME1 241052Z 20010KT 13/12 A2995 RMK A01 T01320122  RH  094%=      5-min Rain = 0
KME1 241053Z 20009KT 13/12 A2995 RMK A01 T01320121  RH  093%=      5-min Rain = 0
KME1 241054Z 20010KT 13/12 A2995 RMK A01 T01320122  RH  094%=      5-min Rain = 0
KME1 241055Z 20010KT 13/12 A2995 RMK A01 T01320122  RH  094%=      5-min Rain = 0
KME1 241056Z 21011KT 13/12 A2995 RMK A01 T01320122  RH  094%=      5-min Rain = 0
KME1 241057Z 20010KT 13/12 A2995 RMK A01 T01320121  RH  093%=      5-min Rain = 0
KME1 241058Z 20010KT 13/12 A2995 RMK A01 T01310121  RH  093%=      5-min Rain = 0
KME1 241059Z 20010KT 13/12 A2995 RMK A01 T01310122  RH  094%=      5-min Rain = 0
KME1 241100Z 21011KT 13/12 A2995 RMK A01 T01310123  RH  095%=      5-min Rain = 0
KME1 241101Z 20010KT 13/12 A2995 RMK A01 T01310123  RH  095%=      5-min Rain = 0
KME1 241102Z 20008KT 13/12 A2995 RMK A01 T01310122  RH  094%=      5-min Rain = 0
KME1 241103Z 21010KT 13/12 A2995 RMK A01 T01310122  RH  095%=      5-min Rain = 0
KME1 241104Z 21009KT 13/12 A2995 RMK A01 T01300122  RH  095%=      5-min Rain = 0
KME1 241105Z 21010KT 13/12 A2995 RMK A01 T01300123  RH  096%=      5-min Rain = 0
KME1 241106Z 21010KT 13/12 A2995 RMK A01 T01300123  RH  096%=      5-min Rain = 0
KME1 241107Z 20009KT 13/12 A2995 RMK A01 T01300124  RH  096%=      5-min Rain = 0
KME1 241108Z 20009KT 13/12 A2996 RMK A01 T01300123  RH  095%=      5-min Rain = 0
KME1 241109Z 20010KT 13/12 A2996 RMK A01 T01310123  RH  095%=      5-min Rain = 0
KME1 241110Z 20009KT 13/12 A2996 RMK A01 T01310123  RH  095%=      5-min Rain = 0
KME1 241111Z 20010KT 13/12 A2996 RMK A01 T01310123  RH  095%=      5-min Rain = 0
KME1 241112Z 20009KT 13/12 A2996 RMK A01 T01310124  RH  096%=      5-min Rain = 0
KME1 241113Z 20010KT 13/12 A2996 RMK A01 T01300123  RH  095%=      5-min Rain = 0
KME1 241114Z 19009KT 13/13 A2996 RMK A01 T01300125  RH  096%=      5-min Rain = 0
KME1 241115Z 20008KT 13/12 A2996 RMK A01 T01300123  RH  095%=      5-min Rain = 0
KME1 241116Z 20009KT 13/12 A2996 RMK A01 T01300124  RH  096%=      5-min Rain = 0
KME1 241117Z 21009KT 13/12 A2996 RMK A01 T01300123  RH  095%=      5-min Rain = 0
KME1 241118Z 21010KT 13/12 A2996 RMK A01 T01300124  RH  096%=      5-min Rain = 0
KME1 241119Z 21008KT 13/13 A2996 RMK A01 T01300125  RH  096%=      5-min Rain = 0
KME1 241120Z 20009KT 13/12 A2996 RMK A01 T01300124  RH  096%=      5-min Rain = 0
KME1 241121Z 21008KT 13/13 A2996 RMK A01 T01300125  RH  097%=      5-min Rain = 0
KME1 241122Z 20008KT 13/12 A2996 RMK A01 T01300124  RH  096%=      5-min Rain = 0
KME1 241123Z 20010KT 13/13 A2997 RMK A01 T01300125  RH  097%=      5-min Rain = 0
KME1 241124Z 21009KT 13/13 A2997 RMK A01 T01300125  RH  097%=      5-min Rain = 0
KME1 241125Z 21009KT 13/13 A2997 RMK A01 T01300125  RH  097%=      5-min Rain = 0
KME1 241126Z 20010KT 13/13 A2997 RMK A01 T01300125  RH  097%=      5-min Rain = 0
KME1 241127Z 20011KT 13/13 A2997 RMK A01 T01290126  RH  098%=      5-min Rain = 0
KME1 241128Z 20011KT 13/13 A2997 RMK A01 T01300126  RH  098%=      5-min Rain = 0
KME1 241129Z 20010KT 13/13 A2997 RMK A01 T01300125  RH  097%=      5-min Rain = 0
KME1 241130Z 20010KT 13/13 A2997 RMK A01 T01310125  RH  096%=      5-min Rain = 0
KME1 241131Z 20011KT 13/13 A2997 RMK A01 T01300125  RH  097%=      5-min Rain = 0
KME1 241132Z 20011KT 13/13 A2997 RMK A01 T01300126  RH  097%=      5-min Rain = 0
KME1 241133Z 20011KT 13/13 A2997 RMK A01 T01300127  RH  098%=      5-min Rain = 0
KME1 241134Z 20010KT 13/13 A2997 RMK A01 T01300126  RH  097%=      5-min Rain = 0
KME1 241135Z 20009KT 13/13 A2997 RMK A01 T01300126  RH  097%=      5-min Rain = 0
KME1 241136Z 20010KT 13/13 A2997 RMK A01 T01300126  RH  097%=      5-min Rain = 0
KME1 241137Z 21012KT 13/13 A2997 RMK A01 T01300127  RH  098%=      5-min Rain = 0
KME1 241138Z 20013KT 13/13 A2997 RMK A01 T01300127  RH  098%=      5-min Rain = 0
KME1 241139Z 20011KT 13/13 A2997 RMK A01 T01300126  RH  097%=      5-min Rain = 0
KME1 241140Z 20011KT 13/13 A2997 RMK A01 T01300126  RH  097%=      5-min Rain = 0
KME1 241141Z 20010KT 13/13 A2997 RMK A01 T01300126  RH  097%=      5-min Rain = 0
KME1 241142Z 20011KT 13/13 A2997 RMK A01 T01300126  RH  097%=      5-min Rain = 0
KME1 241143Z 20012KT 13/13 A2997 RMK A01 T01300127  RH  098%=      5-min Rain = 0
KME1 241144Z 21012KT 13/13 A2997 RMK A01 T01310127  RH  098%=      5-min Rain = 0
KME1 241145Z 20010KT 13/13 A2997 RMK A01 T01320126  RH  096%=      5-min Rain = 0
KME1 241146Z 20012KT 13/13 A2997 RMK A01 T01320126  RH  097%=      5-min Rain = 0
KME1 241147Z 20011KT 13/13 A2997 RMK A01 T01310127  RH  097%=      5-min Rain = 0
KME1 241148Z 20012KT 13/13 A2997 RMK A01 T01310127  RH  097%=      5-min Rain = 0
KME1 241149Z 21013KT 13/13 A2997 RMK A01 T01310127  RH  098%=      5-min Rain = 0
KME1 241150Z 20010KT 13/13 A2997 RMK A01 T01310126  RH  097%=      5-min Rain = 0
KME1 241151Z 20010KT 13/13 A2997 RMK A01 T01310127  RH  097%=      5-min Rain = 0
KME1 241152Z 20010KT 13/13 A2997 RMK A01 T01310126  RH  097%=      5-min Rain = 0
KME1 241153Z 20012KT 13/13 A2997 RMK A01 T01300127  RH  098%=      5-min Rain = 0
KME1 241154Z 20014KT 13/13 A2997 RMK A01 T01300127  RH  099%=      5-min Rain = 0
KME1 241155Z 20012KT 13/13 A2997 RMK A01 T01300127  RH  098%=      5-min Rain = 0
KME1 241156Z 21011KT 13/13 A2997 RMK A01 T01300128  RH  098%=      5-min Rain = 0
KME1 241157Z 21011G16KT 13/13 A2997 RMK A01 T01310127  RH  097%=      5-min Rain = 0
KME1 241158Z 21012KT 13/13 A2997 RMK A01 T01310127  RH  097%=      5-min Rain = 0
KME1 241159Z 20012KT 13/13 A2997 RMK A01 T01300127  RH  098%=      5-min Rain = 0
KME1 241200Z 20012KT 13/13 A2997 RMK A01 T01300127  RH  098%=      5-min Rain = 0
KME1 241201Z 20011KT 13/13 A2997 RMK A01 T01300128  RH  098%=      5-min Rain = 0
KME1 241202Z 21011KT 13/13 A2998 RMK A01 T01300126  RH  097%=      5-min Rain = 0
KME1 241203Z 20012KT 13/13 A2998 RMK A01 T01300127  RH  098%=      5-min Rain = 0
KME1 241204Z 20011KT 13/13 A2998 RMK A01 T01300128  RH  099%=      5-min Rain = 0
KME1 241205Z 20010KT 13/13 A2998 RMK A01 T01300128  RH  099%=      5-min Rain = 0
KME1 241206Z 20012KT 13/13 A2998 RMK A01 T01290127  RH  099%=      5-min Rain = 0
KME1 241207Z 19012KT 13/13 A2998 RMK A01 T01290128  RH  099%=      5-min Rain = 0
KME1 241208Z 19013KT 13/13 A2998 RMK A01 T01290128  RH  100%=      5-min Rain = 0
KME1 241209Z 19012KT 13/13 A2998 RMK A01 T01290128  RH  099%=      5-min Rain = 0
KME1 241210Z 19012KT 13/13 A2998 RMK A01 T01290128  RH  099%=      5-min Rain = 0
KME1 241211Z 19011KT 13/13 A2998 RMK A01 T01290127  RH  099%=      5-min Rain = 0
KME1 241212Z 20012KT 13/13 A2998 RMK A01 T01290128  RH  100%=      5-min Rain = 0
KME1 241213Z 20011KT 13/13 A2998 RMK A01 T01290128  RH  100%=      5-min Rain = 0
KME1 241214Z 20012KT 13/13 A2998 RMK A01 T01280128  RH  099%=      5-min Rain = 0
KME1 241215Z 19011KT 13/13 A2998 RMK A01 T01280128  RH  100%=      5-min Rain = 0
KME1 241216Z 20011KT 13/13 A2998 RMK A01 T01280128  RH  100%=      5-min Rain = 0
KME1 241217Z 20011KT 13/13 A2998 RMK A01 T01290128  RH  100%=      5-min Rain = 0
KME1 241218Z 21009KT 13/13 A2998 RMK A01 T01290128  RH  099%=      5-min Rain = 0
KME1 241219Z 21008KT 13/13 A2999 RMK A01 T01290128  RH  099%=      5-min Rain = 0
KME1 241220Z 21009KT 13/13 A2999 RMK A01 T01280128  RH  100%=      5-min Rain = 0
KME1 241221Z 21009KT 13/13 A2999 RMK A01 T01280128  RH  100%=      5-min Rain = 0
KME1 241222Z 21008KT 13/13 A2999 RMK A01 T01280128  RH  100%=      5-min Rain = 0
KME1 241223Z 21008KT 13/13 A2999 RMK A01 T01280128  RH  100%=      5-min Rain = 0
KME1 241224Z 21009KT 13/13 A2999 RMK A01 T01270127  RH  100%=      5-min Rain = 0
KME1 241225Z 21010KT 13/13 A2999 RMK A01 T01270127  RH  100%=      5-min Rain = 0
KME1 241226Z 21008KT 13/13 A2999 RMK A01 T01270127  RH  100%=      5-min Rain = 0
KME1 241227Z 21009KT 13/13 A2999 RMK A01 T01270127  RH  100%=      5-min Rain = 0
KME1 241228Z 21008KT 13/13 A2999 RMK A01 T01270127  RH  100%=      5-min Rain = 0
KME1 241229Z 21010KT 13/13 A2999 RMK A01 T01260127  RH  100%=      5-min Rain = 0
KME1 241230Z 20009KT 13/13 A2999 RMK A01 T01270127  RH  100%=      5-min Rain = 0
KME1 241231Z 19009KT 13/13 A2999 RMK A01 T01260126  RH  100%=      5-min Rain = 0
KME1 241232Z 19009KT 13/13 A2999 RMK A01 T01260126  RH  100%=      5-min Rain = 0
KME1 241233Z 19008KT 13/13 A2999 RMK A01 T01260126  RH  100%=      5-min Rain = 0
KME1 241234Z 19008KT 13/13 A2999 RMK A01 T01260126  RH  100%=      5-min Rain = 0
KME1 241235Z 20007KT 13/13 A2999 RMK A01 T01250125  RH  100%=      5-min Rain = 0
KME1 241236Z 22006KT 13/13 A2999 RMK A01 T01250125  RH  100%=      5-min Rain = 0
KME1 241237Z 27005KT 12/12 A2999 RMK A01 T01240124  RH  100%=      5-min Rain = 0
KME1 241238Z 28006KT 12/12 A30 RMK A01 T01240124  RH  100%=      5-min Rain = 0
KME1 241239Z 26006KT 12/12 A30 RMK A01 T01240124  RH  100%=      5-min Rain = 0
KME1 241240Z 23006KT 13/13 A30 RMK A01 T01250125  RH  100%=      5-min Rain = 0
KME1 241241Z 21008KT 13/13 A30 RMK A01 T01250126  RH  100%=      5-min Rain = 0
KME1 241242Z 20009KT 13/13 A2999 RMK A01 T01270127  RH  100%=      5-min Rain = 0
KME1 241243Z 19010KT 13/13 A30 RMK A01 T01270128  RH  100%=      5-min Rain = 0
KME1 241244Z 20008KT 13/13 A30 RMK A01 T01270128  RH  100%=      5-min Rain = 0
KME1 241245Z 22007KT 13/13 A30 RMK A01 T01280128  RH  100%=      5-min Rain = 0
KME1 241246Z 25005KT 13/13 A30 RMK A01 T01280128  RH  100%=      5-min Rain = 0
KME1 241247Z 27005KT 13/13 A3001 RMK A01 T01280128  RH  100%=      5-min Rain = 0
KME1 241248Z 26005KT 13/13 A3001 RMK A01 T01270128  RH  100%=      5-min Rain = 0
KME1 241249Z 24005KT 13/13 A3001 RMK A01 T01280128  RH  100%=      5-min Rain = 0
KME1 241250Z 22005KT 13/13 A3001 RMK A01 T01280128  RH  100%=      5-min Rain = 0
KME1 241251Z 22005KT 13/13 A3001 RMK A01 T01280128  RH  100%=      5-min Rain = 0
KME1 241252Z 22005KT 13/13 A3001 RMK A01 T01280128  RH  100%=      5-min Rain = 0
KME1 241253Z 22005KT 13/13 A3001 RMK A01 T01280128  RH  100%=      5-min Rain = 0
KME1 241254Z 24006KT 13/13 A3001 RMK A01 T01280128  RH  100%=      5-min Rain = 0
KME1 241255Z 25005KT 13/13 A3001 RMK A01 T01270128  RH  100%=      5-min Rain = 0
KME1 241256Z 24005KT 13/13 A3001 RMK A01 T01270127  RH  100%=      5-min Rain = 0
KME1 241257Z 22006KT 13/13 A3001 RMK A01 T01260126  RH  100%=      5-min Rain = 0
KME1 241258Z 23006KT 13/13 A3001 RMK A01 T01260126  RH  100%=      5-min Rain = 0
KME1 241259Z 26007KT 13/13 A3002 RMK A01 T01270127  RH  100%=      5-min Rain = 0
KME1 241300Z 27004KT 13/13 A3002 RMK A01 T01270127  RH  100%=      5-min Rain = 0
KME1 241301Z 26002KT 13/13 A3002 RMK A01 T01270127  RH  100%=      5-min Rain = 0
KME1 241302Z 29003KT 13/13 A3002 RMK A01 T01270127  RH  100%=      5-min Rain = 0
KME1 241303Z 34005KT 13/13 A3002 RMK A01 T01270127  RH  100%=      5-min Rain = 0
KME1 241304Z 34008KT 13/13 A3003 RMK A01 T01250125  RH  100%=      5-min Rain = 0
KME1 241305Z 33007KT 12/12 A3003 RMK A01 T01240124  RH  100%=      5-min Rain = 0
KME1 241306Z 32007KT 12/12 A3003 RMK A01 T01230123  RH  100%=      5-min Rain = 0
KME1 241307Z 32007KT 12/12 A3003 RMK A01 T01220122  RH  100%=      5-min Rain = 0
KME1 241308Z 30006KT 12/12 A3003 RMK A01 T01230123  RH  100%=      5-min Rain = 0
KME1 241309Z 29005KT 12/12 A3003 RMK A01 T01230123  RH  100%=      5-min Rain = 0
KME1 241310Z 31007KT 12/12 A3003 RMK A01 T01240124  RH  100%=      5-min Rain = 0
KME1 241311Z 32008KT 12/13 A3003 RMK A01 T01240125  RH  100%=      5-min Rain = 0
KME1 241312Z 33008KT 12/12 A3003 RMK A01 T01240124  RH  100%=      5-min Rain = 0
KME1 241313Z 33006KT 12/12 A3003 RMK A01 T01230123  RH  100%=      5-min Rain = 0
KME1 241314Z 33007KT 12/12 A3004 RMK A01 T01220123  RH  100%=      5-min Rain = 0
KME1 241315Z 32007KT 12/12 A3004 RMK A01 T01220122  RH  100%=      5-min Rain = 0
KME1 241316Z 31007KT 12/12 A3004 RMK A01 T01210121  RH  100%=      5-min Rain = 0
KME1 241317Z 32008KT 12/12 A3004 RMK A01 T01200120  RH  100%=      5-min Rain = 0
KME1 241318Z 32008KT 12/12 A3004 RMK A01 T01200120  RH  100%=      5-min Rain = 0
KME1 241319Z 32007KT 12/12 A3004 RMK A01 T01210121  RH  100%=      5-min Rain = 0
KME1 241320Z 32006KT 12/12 A3004 RMK A01 T01210121  RH  100%=      5-min Rain = 0
KME1 241321Z 31005KT 12/12 A3004 RMK A01 T01210121  RH  100%=      5-min Rain = 0
KME1 241322Z 29005KT 12/12 A3004 RMK A01 T01200120  RH  100%=      5-min Rain = 0
KME1 241323Z 29007KT 12/12 A3003 RMK A01 T01200120  RH  100%=      5-min Rain = 0
KME1 241324Z 28006KT 12/12 A3003 RMK A01 T01200120  RH  100%=      5-min Rain = 0
KME1 241325Z 28005KT 12/12 A3003 RMK A01 T01200120  RH  100%=      5-min Rain = 0
KME1 241326Z 29005KT 12/12 A3003 RMK A01 T01200120  RH  100%=      5-min Rain = 0
KME1 241327Z 28006KT 12/12 A3003 RMK A01 T01200120  RH  100%=      5-min Rain = 0
KME1 241328Z 28004KT 12/12 A3003 RMK A01 T01190119  RH  100%=      5-min Rain = 0
KME1 241329Z 27004KT 12/12 A3003 RMK A01 T01190119  RH  100%=      5-min Rain = 0
KME1 241330Z 27003KT 12/12 A3003 RMK A01 T01190119  RH  100%=      5-min Rain = 0
KME1 241331Z 28004KT 12/12 A3003 RMK A01 T01190119  RH  100%=      5-min Rain = 0
KME1 241332Z 29004KT 12/12 A3004 RMK A01 T01190120  RH  100%=      5-min Rain = 0
KME1 241333Z 29004KT 12/12 A3004 RMK A01 T01190119  RH  100%=      5-min Rain = 0
KME1 241334Z 30004KT 12/12 A3004 RMK A01 T01190119  RH  100%=      5-min Rain = 0
KME1 241335Z 31004KT 12/12 A3004 RMK A01 T01200120  RH  100%=      5-min Rain = 0
KME1 241336Z 31004KT 12/12 A3004 RMK A01 T01200120  RH  100%=      5-min Rain = 0
KME1 241337Z 32006KT 12/12 A3005 RMK A01 T01190120  RH  100%=      5-min Rain = 0
KME1 241338Z 33006KT 12/12 A3005 RMK A01 T01190119  RH  100%=      5-min Rain = 0
KME1 241339Z 33006KT 12/12 A3005 RMK A01 T01180118  RH  100%=      5-min Rain = 0
KME1 241340Z 33007KT 12/12 A3005 RMK A01 T01180118  RH  100%=      5-min Rain = 0
KME1 241341Z 33007KT 12/12 A3005 RMK A01 T01180118  RH  100%=      5-min Rain = 0
KME1 241342Z 32007KT 12/12 A3005 RMK A01 T01180118  RH  100%=      5-min Rain = 0
KME1 241343Z 32007KT 12/12 A3005 RMK A01 T01180118  RH  100%=      5-min Rain = 0
KME1 241344Z 30006KT 12/12 A3005 RMK A01 T01180118  RH  100%=      5-min Rain = 0
KME1 241345Z 29005KT 12/12 A3005 RMK A01 T01190119  RH  100%=      5-min Rain = 0
KME1 241346Z 28004KT 12/12 A3004 RMK A01 T01190119  RH  100%=      5-min Rain = 0
KME1 241347Z 28004KT 12/12 A3004 RMK A01 T01190119  RH  100%=      5-min Rain = 0
KME1 241348Z 28005KT 12/12 A3004 RMK A01 T01200120  RH  100%=      5-min Rain = 0
KME1 241349Z 28005KT 12/12 A3004 RMK A01 T01200120  RH  100%=      5-min Rain = 0
KME1 241350Z 28005KT 12/12 A3005 RMK A01 T01210121  RH  100%=      5-min Rain = 0
KME1 241351Z 29005KT 12/12 A3005 RMK A01 T01210121  RH  100%=      5-min Rain = 0
KME1 241352Z 28005KT 12/12 A3005 RMK A01 T01210121  RH  100%=      5-min Rain = 0
KME1 241353Z 29005KT 12/12 A3005 RMK A01 T01220122  RH  100%=      5-min Rain = 0
KME1 241354Z 29006KT 12/12 A3005 RMK A01 T01230123  RH  100%=      5-min Rain = 0
KME1 241355Z 30006KT 12/12 A3005 RMK A01 T01230123  RH  100%=      5-min Rain = 0
KME1 241356Z 30005KT 12/12 A3006 RMK A01 T01230123  RH  100%=      5-min Rain = 0
KME1 241357Z 30005KT 12/12 A3006 RMK A01 T01230123  RH  100%=      5-min Rain = 0
KME1 241358Z 31005KT 12/12 A3006 RMK A01 T01230122  RH  099%=      5-min Rain = 0
KME1 241359Z 31005KT 12/12 A3006 RMK A01 T01230122  RH  099%=      5-min Rain = 0
KME1 241400Z 31005KT 12/12 A3006 RMK A01 T01230122  RH  099%=      5-min Rain = 0
KME1 241401Z 30004KT 12/12 A3006 RMK A01 T01230122  RH  099%=      5-min Rain = 0
KME1 241402Z 29003KT 12/12 A3006 RMK A01 T01230121  RH  099%=      5-min Rain = 0
KME1 241403Z 29004KT 12/12 A3006 RMK A01 T01240121  RH  098%=      5-min Rain = 0
KME1 241404Z 30005KT 12/12 A3006 RMK A01 T01240120  RH  097%=      5-min Rain = 0
KME1 241405Z 30005KT 12/12 A3006 RMK A01 T01240119  RH  097%=      5-min Rain = 0
KME1 241406Z 30008KT 13/12 A3006 RMK A01 T01250118  RH  096%=      5-min Rain = 0
KME1 241407Z 30006KT 13/12 A3006 RMK A01 T01250116  RH  095%=      5-min Rain = 0
KME1 241408Z 30006KT 13/12 A3006 RMK A01 T01250116  RH  094%=      5-min Rain = 0
KME1 241409Z 31008KT 13/11 A3007 RMK A01 T01250114  RH  093%=      5-min Rain = 0
KME1 241410Z 32009KT 13/11 A3007 RMK A01 T01250111  RH  091%=      5-min Rain = 0
KME1 241411Z 32010KT 13/11 A3007 RMK A01 T01250108  RH  089%=      5-min Rain = 0
KME1 241412Z 32012KT 13/10 A3007 RMK A01 T01250104  RH  087%=      5-min Rain = 0
KME1 241413Z 32010KT 13/10 A3007 RMK A01 T01250101  RH  085%=      5-min Rain = 0
KME1 241414Z 32011KT 13/10 A3007 RMK A01 T01250099  RH  084%=      5-min Rain = 0
KME1 241415Z 32010KT 13/10 A3007 RMK A01 T01250095  RH  082%=      5-min Rain = 0
KME1 241416Z 31010KT 12/10 A3007 RMK A01 T01240096  RH  083%=      5-min Rain = 0
KME1 241417Z 32010KT 12/09 A3007 RMK A01 T01240093  RH  081%=      5-min Rain = 0
KME1 241418Z 33011KT 13/09 A3007 RMK A01 T01250090  RH  079%=      5-min Rain = 0
KME1 241419Z 33010KT 12/09 A3007 RMK A01 T01240085  RH  077%=      5-min Rain = 0
KME1 241420Z 33011KT 12/08 A3007 RMK A01 T01240084  RH  076%=      5-min Rain = 0
KME1 241421Z 32010KT 12/08 A3007 RMK A01 T01240080  RH  075%=      5-min Rain = 0
KME1 241422Z 33010KT 12/08 A3008 RMK A01 T01240076  RH  073%=      5-min Rain = 0
KME1 241423Z 34012KT 12/07 A3008 RMK A01 T01240070  RH  070%=      5-min Rain = 0
KME1 241424Z 34010KT 12/07 A3008 RMK A01 T01240067  RH  068%=      5-min Rain = 0
KME1 241425Z 34010KT 12/07 A3008 RMK A01 T01240068  RH  068%=      5-min Rain = 0
KME1 241426Z 34009KT 12/07 A3008 RMK A01 T01240066  RH  068%=      5-min Rain = 0
KME1 241427Z 34009KT 12/06 A3008 RMK A01 T01240063  RH  066%=      5-min Rain = 0
KME1 241428Z 34007KT 13/06 A3008 RMK A01 T01250062  RH  065%=      5-min Rain = 0
KME1 241429Z 34008KT 13/06 A3008 RMK A01 T01250058  RH  064%=      5-min Rain = 0
KME1 241430Z 34008KT 13/05 A3008 RMK A01 T01250054  RH  062%=      5-min Rain = 0
KME1 241431Z 34009KT 13/05 A3008 RMK A01 T01250052  RH  061%=      5-min Rain = 0
KME1 241432Z 35008KT 13/05 A3008 RMK A01 T01250051  RH  061%=      5-min Rain = 0
KME1 241433Z 35009KT 13/05 A3009 RMK A01 T01250052  RH  061%=      5-min Rain = 0
KME1 241434Z 35009KT 13/05 A3009 RMK A01 T01250049  RH  060%=      5-min Rain = 0
KME1 241435Z 35010KT 13/05 A3009 RMK A01 T01250050  RH  060%=      5-min Rain = 0
KME1 241436Z 34008KT 13/05 A3009 RMK A01 T01250048  RH  059%=      5-min Rain = 0
KME1 241437Z 34008KT 13/05 A3009 RMK A01 T01250050  RH  060%=      5-min Rain = 0
KME1 241438Z 34009KT 13/05 A3008 RMK A01 T01250047  RH  059%=      5-min Rain = 0
KME1 241439Z 34010KT 13/05 A3009 RMK A01 T01250045  RH  058%=      5-min Rain = 0
KME1 241440Z 34008KT 13/04 A3009 RMK A01 T01250044  RH  058%=      5-min Rain = 0
KME1 241441Z 34010KT 13/05 A3009 RMK A01 T01250047  RH  059%=      5-min Rain = 0
KME1 241442Z 35010KT 13/05 A3009 RMK A01 T01250045  RH  058%=      5-min Rain = 0
KME1 241443Z 35010KT 13/04 A3009 RMK A01 T01250042  RH  057%=      5-min Rain = 0
KME1 241444Z 35010KT 13/04 A3009 RMK A01 T01250042  RH  057%=      5-min Rain = 0
KME1 241445Z 35012KT 13/04 A3009 RMK A01 T01250041  RH  057%=      5-min Rain = 0
KME1 241446Z 35011KT 13/04 A3009 RMK A01 T01250042  RH  057%=      5-min Rain = 0
KME1 241447Z 35010KT 13/04 A3009 RMK A01 T01250041  RH  057%=      5-min Rain = 0
KME1 241448Z 35010KT 13/04 A3009 RMK A01 T01250043  RH  057%=      5-min Rain = 0
KME1 241449Z 35013KT 13/04 A3009 RMK A01 T01260040  RH  056%=      5-min Rain = 0
KME1 241450Z 35011KT 13/04 A3009 RMK A01 T01260037  RH  054%=      5-min Rain = 0
KME1 241451Z 34009KT 13/04 A3009 RMK A01 T01260040  RH  056%=      5-min Rain = 0
KME1 241452Z 35010KT 13/04 A3009 RMK A01 T01270041  RH  056%=      5-min Rain = 0
KME1 241453Z 34010KT 13/04 A3009 RMK A01 T01290040  RH  055%=      5-min Rain = 0
KME1 241454Z 35011KT 13/04 A3009 RMK A01 T01290036  RH  053%=      5-min Rain = 0
KME1 241455Z 00012KT 13/04 A3009 RMK A01 T01290037  RH  053%=      5-min Rain = 0
KME1 241456Z 35010KT 13/03 A3009 RMK A01 T01280034  RH  053%=      5-min Rain = 0
KME1 241457Z 35009KT 13/04 A3009 RMK A01 T01280036  RH  054%=      5-min Rain = 0
KME1 241458Z 36010G16KT 13/04 A3009 RMK A01 T01290038  RH  054%=      5-min Rain = 0
KME1 241459Z 36013KT 13/03 A3009 RMK A01 T01300034  RH  052%=      5-min Rain = 0
KME1 241500Z 36013KT 13/03 A301 RMK A01 T01290032  RH  052%=      5-min Rain = 0
KME1 241501Z 36011KT 13/03 A301 RMK A01 T01290031  RH  052%=      5-min Rain = 0
KME1 241502Z 35013KT 13/03 A301 RMK A01 T01290031  RH  051%=      5-min Rain = 0
KME1 241503Z 35012KT 13/03 A301 RMK A01 T01280028  RH  050%=      5-min Rain = 0
KME1 241504Z 00012KT 13/03 A301 RMK A01 T01280029  RH  051%=      5-min Rain = 0
KME1 241505Z 35010KT 13/03 A301 RMK A01 T01300031  RH  051%=      5-min Rain = 0
KME1 241506Z 35012KT 13/03 A3009 RMK A01 T01310029  RH  050%=      5-min Rain = 0
KME1 241507Z 36013KT 13/03 A301 RMK A01 T01300028  RH  050%=      5-min Rain = 0
KME1 241508Z 00014KT 13/03 A301 RMK A01 T01310025  RH  049%=      5-min Rain = 0
KME1 241509Z 35012KT 13/02 A301 RMK A01 T01300024  RH  049%=      5-min Rain = 0
KME1 241510Z 35011KT 13/02 A301 RMK A01 T01300024  RH  049%=      5-min Rain = 0
KME1 241511Z 35011KT 13/03 A301 RMK A01 T01310026  RH  049%=      5-min Rain = 0
KME1 241512Z 35011KT 13/03 A301 RMK A01 T01320026  RH  049%=      5-min Rain = 0
KME1 241513Z 35013KT 13/03 A301 RMK A01 T01330026  RH  048%=      5-min Rain = 0
KME1 241514Z 36013KT 13/02 A3011 RMK A01 T01330024  RH  048%=      5-min Rain = 0
KME1 241515Z 01012KT 13/03 A3011 RMK A01 T01330025  RH  048%=      5-min Rain = 0
KME1 241516Z 01012KT 13/02 A3011 RMK A01 T01330024  RH  048%=      5-min Rain = 0
KME1 241517Z 01011KT 13/02 A3011 RMK A01 T01330023  RH  047%=      5-min Rain = 0
KME1 241518Z 00011KT 13/02 A3011 RMK A01 T01320022  RH  047%=      5-min Rain = 0
KME1 241519Z 35011KT 13/02 A3011 RMK A01 T01320022  RH  047%=      5-min Rain = 0
KME1 241520Z 01010KT 13/02 A3011 RMK A01 T01320022  RH  047%=      5-min Rain = 0
KME1 241521Z 00011KT 13/02 A3011 RMK A01 T01330023  RH  047%=      5-min Rain = 0
KME1 241522Z 00011KT 13/02 A3011 RMK A01 T01340024  RH  047%=      5-min Rain = 0
KME1 241523Z 02012KT 14/02 A3011 RMK A01 T01360023  RH  046%=      5-min Rain = 0
KME1 241524Z 02010KT 14/02 A3011 RMK A01 T01350022  RH  046%=      5-min Rain = 0
KME1 241525Z 01010KT 14/02 A3011 RMK A01 T01350021  RH  046%=      5-min Rain = 0
KME1 241526Z 01009KT 14/02 A3011 RMK A01 T01350022  RH  046%=      5-min Rain = 0
KME1 241527Z 00011KT 14/03 A3011 RMK A01 T01370025  RH  047%=      5-min Rain = 0
KME1 241528Z 00012KT 14/02 A3011 RMK A01 T01380020  RH  045%=      5-min Rain = 0
KME1 241529Z 00010KT 14/02 A3011 RMK A01 T01370021  RH  045%=      5-min Rain = 0
KME1 241530Z 01012KT 14/02 A3012 RMK A01 T01380021  RH  045%=      5-min Rain = 0
KME1 241531Z 35014KT 14/02 A3012 RMK A01 T01390019  RH  044%=      5-min Rain = 0
KME1 241532Z 00011KT 14/02 A3012 RMK A01 T01380017  RH  044%=      5-min Rain = 0
KME1 241533Z 01012KT 14/02 A3012 RMK A01 T01380017  RH  044%=      5-min Rain = 0
KME1 241534Z 01012KT 14/02 A3012 RMK A01 T01380017  RH  044%=      5-min Rain = 0
KME1 241535Z 02012KT 14/02 A3012 RMK A01 T01380017  RH  044%=      5-min Rain = 0
KME1 241536Z 02010KT 14/02 A3012 RMK A01 T01380017  RH  044%=      5-min Rain = 0
KME1 241537Z 02011KT 14/02 A3012 RMK A01 T01390018  RH  044%=      5-min Rain = 0
KME1 241538Z 01011KT 14/02 A3012 RMK A01 T01390016  RH  043%=      5-min Rain = 0
KME1 241539Z 00010KT 14/02 A3012 RMK A01 T01390015  RH  043%=      5-min Rain = 0
KME1 241540Z 35010KT 14/02 A3012 RMK A01 T01380017  RH  044%=      5-min Rain = 0
KME1 241541Z 35011KT 14/02 A3012 RMK A01 T01410019  RH  044%=      5-min Rain = 0
KME1 241542Z 36011KT 14/02 A3012 RMK A01 T01420017  RH  043%=      5-min Rain = 0
KME1 241543Z 35012KT 14/02 A3012 RMK A01 T01420020  RH  043%=      5-min Rain = 0
KME1 241544Z 36011KT 14/02 A3012 RMK A01 T01440018  RH  042%=      5-min Rain = 0
KME1 241545Z 00011KT 14/02 A3012 RMK A01 T01440019  RH  043%=      5-min Rain = 0
KME1 241546Z 01011KT 14/02 A3012 RMK A01 T01440017  RH  042%=      5-min Rain = 0
KME1 241547Z 36009KT 14/02 A3012 RMK A01 T01430017  RH  042%=      5-min Rain = 0
KME1 241548Z 01011KT 14/02 A3012 RMK A01 T01440020  RH  043%=      5-min Rain = 0
KME1 241549Z 02013KT 15/02 A3012 RMK A01 T01450017  RH  042%=      5-min Rain = 0
KME1 241550Z 02012KT 14/01 A3012 RMK A01 T01430014  RH  042%=      5-min Rain = 0
KME1 241551Z 01011KT 14/02 A3012 RMK A01 T01420015  RH  042%=      5-min Rain = 0
KME1 241552Z 02010KT 14/02 A3012 RMK A01 T01420017  RH  043%=      5-min Rain = 0
KME1 241553Z 01010KT 14/02 A3012 RMK A01 T01430017  RH  042%=      5-min Rain = 0
KME1 241554Z 36011KT 14/02 A3012 RMK A01 T01440015  RH  042%=      5-min Rain = 0
KME1 241555Z 00009KT 14/01 A3012 RMK A01 T01440013  RH  041%=      5-min Rain = 0
KME1 241556Z 00010KT 14/02 A3012 RMK A01 T01440017  RH  042%=      5-min Rain = 0
KME1 241557Z 01008KT 15/02 A3012 RMK A01 T01470020  RH  042%=      5-min Rain = 0
KME1 241558Z 01010KT 15/02 A3012 RMK A01 T01490020  RH  042%=      5-min Rain = 0
KME1 241559Z 01010KT 15/02 A3012 RMK A01 T01510020  RH  041%=      5-min Rain = 0
KME1 241600Z 02010KT 15/02 A3012 RMK A01 T01530019  RH  040%=      5-min Rain = 0
KME1 241601Z 03011KT 15/01 A3012 RMK A01 T01520012  RH  039%=      5-min Rain = 0
KME1 241602Z 03009KT 15/01 A3012 RMK A01 T01500010  RH  039%=      5-min Rain = 0
KME1 241603Z 02012KT 15/01 A3012 RMK A01 T01490010  RH  039%=      5-min Rain = 0
KME1 241604Z 01013KT 15/01 A3012 RMK A01 T01490009  RH  038%=      5-min Rain = 0
KME1 241605Z 01013KT 15/01 A3012 RMK A01 T01490009  RH  039%=      5-min Rain = 0
KME1 241606Z 02012KT 15/01 A3012 RMK A01 T01490008  RH  038%=      5-min Rain = 0
KME1 241607Z 01012KT 15/01 A3012 RMK A01 T01490007  RH  038%=      5-min Rain = 0
KME1 241608Z 00008KT 15/01 A3012 RMK A01 T01490009  RH  039%=      5-min Rain = 0
KME1 241609Z 01010KT 15/01 A3012 RMK A01 T01510011  RH  039%=      5-min Rain = 0
KME1 241610Z 01009KT 15/01 A3012 RMK A01 T01510009  RH  038%=      5-min Rain = 0
KME1 241611Z 01010KT 15/01 A3012 RMK A01 T01510008  RH  038%=      5-min Rain = 0
KME1 241612Z 36011KT 15/01 A3012 RMK A01 T01520011  RH  038%=      5-min Rain = 0
KME1 241613Z 01010KT 15/01 A3012 RMK A01 T01530007  RH  037%=      5-min Rain = 0
KME1 241614Z 01012KT 15/01 A3012 RMK A01 T01520005  RH  037%=      5-min Rain = 0
KME1 241615Z 01010KT 15/01 A3012 RMK A01 T01510005  RH  037%=      5-min Rain = 0
KME1 241616Z 03010KT 15/01 A3012 RMK A01 T01520007  RH  037%=      5-min Rain = 0
KME1 241617Z 03010KT 15/01 A3012 RMK A01 T01520005  RH  037%=      5-min Rain = 0
KME1 241618Z 03011KT 15/01 A3012 RMK A01 T01520007  RH  037%=      5-min Rain = 0
KME1 241619Z 02009KT 15/00 A3012 RMK A01 T01530004  RH  036%=      5-min Rain = 0
KME1 241620Z 36010KT 15/01 A3012 RMK A01 T01530010  RH  038%=      5-min Rain = 0
KME1 241621Z 35010KT 16/01 A3012 RMK A01 T01550007  RH  037%=      5-min Rain = 0
KME1 241622Z 35008KT 16/01 A3012 RMK A01 T01550007  RH  037%=      5-min Rain = 0
KME1 241623Z 01008KT 15/01 A3012 RMK A01 T01540007  RH  037%=      5-min Rain = 0
KME1 241624Z 01009KT 16/01 A3012 RMK A01 T01550012  RH  038%=      5-min Rain = 0
KME1 241625Z 01011KT 16/01 A3012 RMK A01 T01580010  RH  037%=      5-min Rain = 0
KME1 241626Z 02008KT 16/01 A3012 RMK A01 T01580009  RH  036%=      5-min Rain = 0
KME1 241627Z 00007KT 16/01 A3012 RMK A01 T01580010  RH  037%=      5-min Rain = 0
KME1 241628Z 35008KT 16/01 A3012 RMK A01 T01590009  RH  036%=      5-min Rain = 0
KME1 241629Z 35009KT 16/01 A3012 RMK A01 T01600010  RH  036%=      5-min Rain = 0
KME1 241630Z 00011KT 16/01 A3012 RMK A01 T01600007  RH  035%=      5-min Rain = 0
KME1 241631Z 01009KT 16/00 A3012 RMK A01 T01580003  RH  035%=      5-min Rain = 0
KME1 241632Z 02008KT 16/00 A3013 RMK A01 T01560002  RH  035%=      5-min Rain = 0
KME1 241633Z 01007KT 16/00 A3013 RMK A01 T01550004  RH  036%=      5-min Rain = 0
KME1 241634Z 00005G11KT 16/00 A3013 RMK A01 T01560002  RH  035%=      5-min Rain = 0
KME1 241635Z 36009KT 16/01 A3013 RMK A01 T01570008  RH  036%=      5-min Rain = 0
KME1 241636Z 36010KT 16/01 A3013 RMK A01 T01600008  RH  036%=      5-min Rain = 0
KME1 241637Z 35011KT 16/01 A3013 RMK A01 T01600006  RH  035%=      5-min Rain = 0
KME1 241638Z 01009KT 16/01 A3013 RMK A01 T01600005  RH  035%=      5-min Rain = 0
KME1 241639Z 01006KT 16/00 A3013 RMK A01 T01590003  RH  035%=      5-min Rain = 0
KME1 241640Z 35008KT 16/00 A3013 RMK A01 T01570002  RH  035%=      5-min Rain = 0
KME1 241641Z 00009KT 16/01 A3013 RMK A01 T01580005  RH  035%=      5-min Rain = 0
KME1 241642Z 02010KT 16/01 A3013 RMK A01 T01600007  RH  035%=      5-min Rain = 0
KME1 241643Z 01008KT 16/00 A3013 RMK A01 T01600003  RH  034%=      5-min Rain = 0
KME1 241644Z 34009KT 16/01 A3013 RMK A01 T01590008  RH  036%=      5-min Rain = 0
KME1 241645Z 34010KT 16/01 A3013 RMK A01 T01620010  RH  036%=      5-min Rain = 0
KME1 241646Z 34008KT 17/01 A3013 RMK A01 T01650007  RH  034%=      5-min Rain = 0
KME1 241647Z 36010KT 17/01 A3012 RMK A01 T01650007  RH  034%=      5-min Rain = 0
KME1 241648Z 02010KT 16/01 A3013 RMK A01 T01640008  RH  035%=      5-min Rain = 0
KME1 241649Z 03008KT 16/01 A3013 RMK A01 T01640005  RH  034%=      5-min Rain = 0
KME1 241650Z 03007KT 16/00 A3012 RMK A01 T01620002  RH  034%=      5-min Rain = 0
KME1 241651Z 36010KT 16/01 A3012 RMK A01 T01620005  RH  035%=      5-min Rain = 0
KME1 241652Z 35009KT 16/00 A3012 RMK A01 T01620004  RH  034%=      5-min Rain = 0
KME1 241653Z 36010KT 16/01 A3012 RMK A01 T01630008  RH  035%=      5-min Rain = 0
KME1 241654Z 01011KT 17/01 A3012 RMK A01 T01650007  RH  034%=      5-min Rain = 0
KME1 241655Z 00010KT 16/00 A3013 RMK A01 T01640003  RH  034%=      5-min Rain = 0
KME1 241656Z 01007KT 16/00 A3012 RMK A01 T01630001  RH  033%=      5-min Rain = 0
KME1 241657Z 34007KT 16/00 A3012 RMK A01 T01610001  RH  034%=      5-min Rain = 0
KME1 241658Z 34012KT 16/01 A3012 RMK A01 T01630006  RH  035%=      5-min Rain = 0
KME1 241659Z 35011KT 17/00 A3012 RMK A01 T01650004  RH  034%=      5-min Rain = 0
KME1 241700Z 35008KT 17/01 A3012 RMK A01 T01650005  RH  034%=      5-min Rain = 0
KME1 241701Z 35008KT 17/01 A3012 RMK A01 T01660007  RH  034%=      5-min Rain = 0
KME1 241702Z 01007KT 17/01 A3012 RMK A01 T01690011  RH  034%=      5-min Rain = 0
KME1 241703Z 04007G12KT 17/01 A3012 RMK A01 T01710009  RH  034%=      5-min Rain = 0
KME1 241704Z 03010KT 17/01 A3012 RMK A01 T01720008  RH  033%=      5-min Rain = 0
KME1 241705Z 03008KT 17/00 A3012 RMK A01 T01700003  RH  032%=      5-min Rain = 0
KME1 241706Z 04007KT 17/00 A3012 RMK A01 T016600-0  RH  032%=      5-min Rain = 0
KME1 241707Z 04007KT 17/00 A3013 RMK A01 T01650002  RH  033%=      5-min Rain = 0
KME1 241708Z 04006KT 17/00 A3013 RMK A01 T01650001  RH  033%=      5-min Rain = 0
KME1 241709Z 04006KT 16/00 A3012 RMK A01 T01640001  RH  033%=      5-min Rain = 0
KME1 241710Z 03007KT 17/01 A3012 RMK A01 T01660005  RH  034%=      5-min Rain = 0
KME1 241711Z 05007KT 17/01 A3012 RMK A01 T01680006  RH  033%=      5-min Rain = 0
KME1 241712Z 05008KT 17/00 A3013 RMK A01 T01690001  RH  032%=      5-min Rain = 0
KME1 241713Z 04010KT 17/00 A3013 RMK A01 T01690003  RH  033%=      5-min Rain = 0
KME1 241714Z 03008KT 17/00 A3013 RMK A01 T01690001  RH  032%=      5-min Rain = 0
KME1 241715Z 02008KT 17/00 A3013 RMK A01 T01680000  RH  032%=      5-min Rain = 0
KME1 241716Z 04006KT 17/00 A3013 RMK A01 T01680003  RH  033%=      5-min Rain = 0
KME1 241717Z 02006KT 17/00 A3012 RMK A01 T01690004  RH  033%=      5-min Rain = 0
KME1 241718Z 04006KT 17/01 A3012 RMK A01 T01710008  RH  033%=      5-min Rain = 0
KME1 241719Z 03004KT 17/00 A3012 RMK A01 T01720000  RH  031%=      5-min Rain = 0
KME1 241720Z 02004KT 17/00 A3012 RMK A01 T01710004  RH  032%=      5-min Rain = 0
KME1 241721Z 01005KT 17/01 A3013 RMK A01 T01720005  RH  032%=      5-min Rain = 0
KME1 241722Z 02008KT 17/01 A3013 RMK A01 T01730007  RH  033%=      5-min Rain = 0
KME1 241723Z 02006KT 17/00 A3013 RMK A01 T01720004  RH  032%=      5-min Rain = 0
KME1 241724Z 00006KT 17/01 A3013 RMK A01 T01700005  RH  033%=      5-min Rain = 0
KME1 241725Z 03008KT 17/01 A3013 RMK A01 T01720007  RH  033%=      5-min Rain = 0
KME1 241726Z 05006KT 17/00 A3013 RMK A01 T01730004  RH  032%=      5-min Rain = 0
KME1 241727Z 04006KT 17/01 A3013 RMK A01 T01740011  RH  033%=      5-min Rain = 0
KME1 241728Z 03009KT 18/01 A3013 RMK A01 T01750005  RH  032%=      5-min Rain = 0
KME1 241729Z 03007KT 17/01 A3013 RMK A01 T01730005  RH  032%=      5-min Rain = 0
KME1 241730Z 02007KT 17/01 A3013 RMK A01 T01720006  RH  033%=      5-min Rain = 0
KME1 241731Z 02007KT 17/01 A3013 RMK A01 T01720008  RH  033%=      5-min Rain = 0
KME1 241732Z 05007KT 17/01 A3013 RMK A01 T01740008  RH  033%=      5-min Rain = 0
KME1 241733Z 04006KT 17/00 A3012 RMK A01 T01740004  RH  032%=      5-min Rain = 0
KME1 241734Z 03007KT 18/01 A3012 RMK A01 T01750009  RH  033%=      5-min Rain = 0
KME1 241735Z 36007KT 18/01 A3012 RMK A01 T01760008  RH  032%=      5-min Rain = 0
KME1 241736Z 02008KT 18/01 A3012 RMK A01 T01760008  RH  032%=      5-min Rain = 0
KME1 241737Z 03009KT 18/01 A3012 RMK A01 T01760010  RH  033%=      5-min Rain = 0
KME1 241738Z 04006KT 18/01 A3012 RMK A01 T01760005  RH  031%=      5-min Rain = 0
KME1 241739Z 03005KT 18/00 A3012 RMK A01 T01750004  RH  032%=      5-min Rain = 0
KME1 241740Z 02005KT 18/01 A3012 RMK A01 T01750006  RH  032%=      5-min Rain = 0
KME1 241741Z 05005KT 18/00 A3012 RMK A01 T01760003  RH  031%=      5-min Rain = 0
KME1 241742Z 04006KT 18/00 A3012 RMK A01 T01760003  RH  031%=      5-min Rain = 0
KME1 241743Z 04004KT 17/00 A3012 RMK A01 T01740000  RH  031%=      5-min Rain = 0
KME1 241744Z 03004KT 17/01 A3012 RMK A01 T01730007  RH  033%=      5-min Rain = 0
KME1 241745Z 02010KT 18/01 A3012 RMK A01 T01770013  RH  033%=      5-min Rain = 0
KME1 241746Z 02008KT 18/01 A3012 RMK A01 T01790013  RH  033%=      5-min Rain = 0
KME1 241747Z 02010KT 18/01 A3012 RMK A01 T01790011  RH  032%=      5-min Rain = 0
KME1 241748Z 01008KT 18/01 A3012 RMK A01 T01780012  RH  033%=      5-min Rain = 0
KME1 241749Z 01007KT 18/01 A3012 RMK A01 T01770008  RH  032%=      5-min Rain = 0
KME1 241750Z 03005KT 18/01 A3012 RMK A01 T01750010  RH  033%=      5-min Rain = 0
KME1 241751Z 02006KT 18/01 A3012 RMK A01 T01770011  RH  033%=      5-min Rain = 0
KME1 241752Z 01005KT 18/01 A3012 RMK A01 T01770009  RH  032%=      5-min Rain = 0
KME1 241753Z 01004KT 18/00 A3012 RMK A01 T01770004  RH  031%=      5-min Rain = 0
KME1 241754Z 35003KT 18/00 A3012 RMK A01 T01750003  RH  031%=      5-min Rain = 0
KME1 241755Z 01003KT 17/00 A3012 RMK A01 T01740004  RH  032%=      5-min Rain = 0
KME1 241756Z 02008KT 18/01 A3012 RMK A01 T01760014  RH  034%=      5-min Rain = 0
KME1 241757Z 00009KT 18/02 A3012 RMK A01 T01820022  RH  034%=      5-min Rain = 0
KME1 241758Z 00007KT 19/02 A3012 RMK A01 T01860016  RH  032%=      5-min Rain = 0
KME1 241759Z 01008KT 18/01 A3012 RMK A01 T01840014  RH  032%=      5-min Rain = 0
KME1 241800Z 03011KT 18/01 A3012 RMK A01 T01840014  RH  032%=      5-min Rain = 0
KME1 241801Z 03011KT 18/01 A3012 RMK A01 T01820010  RH  031%=      5-min Rain = 0
KME1 241802Z 02008KT 18/01 A3012 RMK A01 T01790009  RH  032%=      5-min Rain = 0
KME1 241803Z 02007KT 18/01 A3012 RMK A01 T01790013  RH  033%=      5-min Rain = 0
KME1 241804Z 01003KT 18/01 A3012 RMK A01 T01780006  RH  031%=      5-min Rain = 0
KME1 241805Z 35006KT 18/01 A3012 RMK A01 T01770008  RH  032%=      5-min Rain = 0
KME1 241806Z 36007KT 18/01 A3012 RMK A01 T01790013  RH  033%=      5-min Rain = 0
KME1 241807Z 02009KT 18/02 A3012 RMK A01 T01820015  RH  033%=      5-min Rain = 0
KME1 241808Z 03007KT 18/01 A3012 RMK A01 T01830012  RH  032%=      5-min Rain = 0
KME1 241809Z 03006KT 18/02 A3012 RMK A01 T01830015  RH  032%=      5-min Rain = 0
KME1 241810Z 02005KT 18/01 A3012 RMK A01 T01820009  RH  031%=      5-min Rain = 0
KME1 241811Z 02004KT 18/01 A3012 RMK A01 T01810008  RH  031%=      5-min Rain = 0
KME1 241812Z 04002KT 18/01 A3011 RMK A01 T01800006  RH  031%=      5-min Rain = 0
KME1 241813Z 00006KT 18/01 A3011 RMK A01 T01810012  RH  032%=      5-min Rain = 0
KME1 241814Z 36008KT 18/01 A3011 RMK A01 T01830014  RH  032%=      5-min Rain = 0
KME1 241815Z 00007KT 19/02 A3011 RMK A01 T01860018  RH  032%=      5-min Rain = 0
KME1 241816Z 02008KT 19/02 A3011 RMK A01 T01890017  RH  032%=      5-min Rain = 0
KME1 241817Z 01007KT 19/02 A3011 RMK A01 T01880015  RH  031%=      5-min Rain = 0
KME1 241818Z 03007KT 19/02 A3011 RMK A01 T01890017  RH  032%=      5-min Rain = 0
KME1 241819Z 03007KT 19/02 A3011 RMK A01 T01910020  RH  032%=      5-min Rain = 0
KME1 241820Z 04008KT 19/02 A3011 RMK A01 T01920018  RH  031%=      5-min Rain = 0
KME1 241821Z 03010KT 19/02 A3011 RMK A01 T01930017  RH  031%=      5-min Rain = 0
KME1 241822Z 01008KT 19/01 A3011 RMK A01 T01900011  RH  030%=      5-min Rain = 0
KME1 241823Z 36008KT 19/01 A3011 RMK A01 T01870013  RH  031%=      5-min Rain = 0
KME1 241824Z 03011KT 19/02 A3011 RMK A01 T01870015  RH  032%=      5-min Rain = 0
KME1 241825Z 03007KT 19/01 A3011 RMK A01 T01870014  RH  031%=      5-min Rain = 0
KME1 241826Z 03009KT 19/01 A3011 RMK A01 T01870013  RH  031%=      5-min Rain = 0
KME1 241827Z 02006KT 19/01 A3011 RMK A01 T01870010  RH  030%=      5-min Rain = 0
KME1 241828Z 03007KT 19/01 A3011 RMK A01 T01860014  RH  032%=      5-min Rain = 0
KME1 241829Z 04006KT 19/01 A3011 RMK A01 T01870012  RH  031%=      5-min Rain = 0
KME1 241830Z 03004KT 19/01 A3011 RMK A01 T01870010  RH  031%=      5-min Rain = 0
KME1 241831Z 02008KT 19/02 A3011 RMK A01 T01870016  RH  032%=      5-min Rain = 0
KME1 241832Z 04008KT 19/01 A3011 RMK A01 T01890014  RH  031%=      5-min Rain = 0
KME1 241833Z 02009KT 19/02 A3011 RMK A01 T01910017  RH  031%=      5-min Rain = 0
KME1 241834Z 00008KT 19/01 A3011 RMK A01 T01910013  RH  030%=      5-min Rain = 0
KME1 241835Z 35003KT 19/01 A3011 RMK A01 T01890008  RH  030%=      5-min Rain = 0
KME1 241836Z 03005G10KT 19/01 A3011 RMK A01 T01860006  RH  030%=      5-min Rain = 0
KME1 241837Z 03007KT 19/01 A3011 RMK A01 T01860009  RH  031%=      5-min Rain = 0
KME1 241838Z 02004KT 19/01 A3011 RMK A01 T01850007  RH  030%=      5-min Rain = 0
KME1 241839Z 04007G12KT 19/01 A3011 RMK A01 T01860010  RH  031%=      5-min Rain = 0
KME1 241840Z 03008KT 19/01 A3011 RMK A01 T01880008  RH  030%=      5-min Rain = 0
KME1 241841Z 04007KT 19/01 A3011 RMK A01 T01870008  RH  030%=      5-min Rain = 0
KME1 241842Z 06007KT 19/01 A3011 RMK A01 T01880012  RH  031%=      5-min Rain = 0
KME1 241843Z 05006KT 19/01 A3011 RMK A01 T01900009  RH  030%=      5-min Rain = 0
KME1 241844Z 04009KT 19/01 A3011 RMK A01 T01900008  RH  029%=      5-min Rain = 0
KME1 241845Z 05008KT 19/01 A301 RMK A01 T01910014  RH  031%=      5-min Rain = 0
KME1 241846Z 04010KT 20/02 A301 RMK A01 T01950016  RH  030%=      5-min Rain = 0
KME1 241847Z 04007KT 20/01 A301 RMK A01 T01950010  RH  029%=      5-min Rain = 0
KME1 241848Z 05006KT 19/01 A301 RMK A01 T01920008  RH  029%=      5-min Rain = 0
KME1 241849Z 04003KT 19/01 A301 RMK A01 T01900008  RH  030%=      5-min Rain = 0
KME1 241850Z 05005KT 19/01 A301 RMK A01 T01910012  RH  030%=      5-min Rain = 0
KME1 241851Z 05004KT 19/01 A301 RMK A01 T01930010  RH  029%=      5-min Rain = 0
KME1 241852Z 07007KT 19/01 A301 RMK A01 T01940012  RH  030%=      5-min Rain = 0
KME1 241853Z 03009KT 19/02 A301 RMK A01 T01940015  RH  030%=      5-min Rain = 0
KME1 241854Z 03006KT 20/01 A301 RMK A01 T01960014  RH  030%=      5-min Rain = 0
KME1 241855Z 04003KT 19/01 A301 RMK A01 T01940009  RH  029%=      5-min Rain = 0
KME1 241856Z 04005KT 19/01 A301 RMK A01 T01920009  RH  029%=      5-min Rain = 0
KME1 241857Z 04009KT 19/01 A301 RMK A01 T01930010  RH  029%=      5-min Rain = 0
KME1 241858Z 04007KT 19/01 A301 RMK A01 T01920005  RH  028%=      5-min Rain = 0
KME1 241859Z 07004KT 19/00 A301 RMK A01 T01900004  RH  029%=      5-min Rain = 0
KME1 241900Z 13002KT 19/00 A301 RMK A01 T01900003  RH  029%=      5-min Rain = 0
KME1 241901Z 03003G8KT 19/01 A301 RMK A01 T01900005  RH  029%=      5-min Rain = 0
KME1 241902Z 03008KT 19/02 A301 RMK A01 T01940015  RH  030%=      5-min Rain = 0
KME1 241903Z 06005KT 20/01 A301 RMK A01 T01950010  RH  029%=      5-min Rain = 0
KME1 241904Z 06006KT 20/01 A301 RMK A01 T01950007  RH  029%=      5-min Rain = 0
KME1 241905Z 06004KT 19/01 A301 RMK A01 T01940008  RH  029%=      5-min Rain = 0
KME1 241906Z 04004KT 19/01 A301 RMK A01 T01940010  RH  029%=      5-min Rain = 0
KME1 241907Z 06002KT 20/01 A301 RMK A01 T01950008  RH  029%=      5-min Rain = 0
KME1 241908Z 04005KT 20/01 A301 RMK A01 T01960009  RH  029%=      5-min Rain = 0
KME1 241909Z 03004KT 20/01 A301 RMK A01 T01960008  RH  028%=      5-min Rain = 0
KME1 241910Z 36006KT 20/01 A301 RMK A01 T01950008  RH  029%=      5-min Rain = 0
KME1 241911Z 01004KT 19/01 A301 RMK A01 T01940008  RH  029%=      5-min Rain = 0
KME1 241912Z 00005KT 19/01 A301 RMK A01 T01940008  RH  029%=      5-min Rain = 0
KME1 241913Z 02005KT 20/02 A301 RMK A01 T01950016  RH  030%=      5-min Rain = 0
KME1 241914Z 04006KT 20/02 A301 RMK A01 T01990018  RH  030%=      5-min Rain = 0
KME1 241915Z 03008KT 20/02 A301 RMK A01 T02010019  RH  030%=      5-min Rain = 0
KME1 241916Z 02006KT 20/02 A301 RMK A01 T02020016  RH  029%=      5-min Rain = 0
KME1 241917Z 02004KT 20/01 A301 RMK A01 T02000011  RH  028%=      5-min Rain = 0
KME1 241918Z 05003KT 20/01 A3009 RMK A01 T01970011  RH  029%=      5-min Rain = 0
KME1 241919Z 04006KT 20/01 A3009 RMK A01 T01980010  RH  029%=      5-min Rain = 0
KME1 241920Z 03005KT 20/01 A3009 RMK A01 T01960011  RH  029%=      5-min Rain = 0
KME1 241921Z 04003KT 20/02 A3009 RMK A01 T01970015  RH  030%=      5-min Rain = 0
KME1 241922Z 02006KT 20/02 A3009 RMK A01 T02000016  RH  029%=      5-min Rain = 0
KME1 241923Z 01007KT 20/01 A3009 RMK A01 T02010013  RH  028%=      5-min Rain = 0
KME1 241924Z 34004KT 20/01 A3009 RMK A01 T01990009  RH  028%=      5-min Rain = 0
KME1 241925Z 36005KT 20/01 A3009 RMK A01 T01970011  RH  029%=      5-min Rain = 0
KME1 241926Z 05006KT 20/02 A3009 RMK A01 T01970015  RH  030%=      5-min Rain = 0
KME1 241927Z 06004KT 20/01 A3009 RMK A01 T02000014  RH  029%=      5-min Rain = 0
KME1 241928Z 04006KT 20/02 A3009 RMK A01 T02010016  RH  029%=      5-min Rain = 0
KME1 241929Z 04007KT 20/01 A3009 RMK A01 T02010013  RH  029%=      5-min Rain = 0
KME1 241930Z 02006KT 20/01 A3009 RMK A01 T02000013  RH  029%=      5-min Rain = 0
KME1 241931Z 01005KT 20/01 A3009 RMK A01 T01990012  RH  029%=      5-min Rain = 0
KME1 241932Z 01008KT 20/02 A3009 RMK A01 T02000019  RH  030%=      5-min Rain = 0
KME1 241933Z 03010KT 20/02 A3009 RMK A01 T02020020  RH  030%=      5-min Rain = 0
KME1 241934Z 03008KT 20/01 A3009 RMK A01 T02030014  RH  028%=      5-min Rain = 0
KME1 241935Z 03005KT 20/01 A3008 RMK A01 T02000011  RH  028%=      5-min Rain = 0
KME1 241936Z 04004KT 20/01 A3008 RMK A01 T01980006  RH  028%=      5-min Rain = 0
KME1 241937Z 08001KT 20/01 A3008 RMK A01 T01980007  RH  028%=      5-min Rain = 0
KME1 241938Z 06003KT 20/01 A3008 RMK A01 T01970009  RH  028%=      5-min Rain = 0
KME1 241939Z 05007KT 20/01 A3008 RMK A01 T02000012  RH  029%=      5-min Rain = 0
KME1 241940Z 05007KT 20/01 A3008 RMK A01 T02000011  RH  028%=      5-min Rain = 0
KME1 241941Z 05004KT 20/01 A3008 RMK A01 T02000006  RH  027%=      5-min Rain = 0
KME1 241942Z 04002KT 20/01 A3008 RMK A01 T01990010  RH  028%=      5-min Rain = 0
KME1 241943Z 02002KT 20/01 A3008 RMK A01 T01990005  RH  027%=      5-min Rain = 0
KME1 241944Z 02001KT 20/00 A3008 RMK A01 T01980004  RH  027%=      5-min Rain = 0
KME1 241945Z 10002KT 20/00 A3008 RMK A01 T01980004  RH  027%=      5-min Rain = 0
KME1 241946Z 11003KT 20/01 A3008 RMK A01 T02000013  RH  029%=      5-min Rain = 0
KME1 241947Z 11004KT 20/01 A3008 RMK A01 T02030014  RH  028%=      5-min Rain = 0
KME1 241948Z 05004KT 21/02 A3008 RMK A01 T02050018  RH  029%=      5-min Rain = 0
KME1 241949Z 05008KT 21/02 A3008 RMK A01 T02060018  RH  029%=      5-min Rain = 0
KME1 241950Z 04006KT 21/01 A3008 RMK A01 T02060013  RH  028%=      5-min Rain = 0
KME1 241951Z 06007KT 21/02 A3008 RMK A01 T02050015  RH  028%=      5-min Rain = 0
KME1 241952Z 03005KT 20/01 A3008 RMK A01 T02030010  RH  028%=      5-min Rain = 0
KME1 241953Z 02003KT 20/01 A3008 RMK A01 T02010009  RH  028%=      5-min Rain = 0
KME1 241954Z 03003KT 20/01 A3008 RMK A01 T02010012  RH  028%=      5-min Rain = 0
KME1 241955Z 04008KT 20/02 A3008 RMK A01 T02040020  RH  030%=      5-min Rain = 0
KME1 241956Z 02007KT 21/01 A3008 RMK A01 T02050013  RH  028%=      5-min Rain = 0
KME1 241957Z 01003KT 20/01 A3007 RMK A01 T02020010  RH  028%=      5-min Rain = 0
KME1 241958Z 01005KT 20/02 A3007 RMK A01 T02020016  RH  029%=      5-min Rain = 0
KME1 241959Z 01005KT 20/02 A3007 RMK A01 T02040015  RH  028%=      5-min Rain = 0
KME1 242000Z 02007KT 21/02 A3007 RMK A01 T02050016  RH  028%=      5-min Rain = 0
KME1 242001Z 01007KT 21/02 A3007 RMK A01 T02060019  RH  029%=      5-min Rain = 0
KME1 242002Z 00005KT 21/02 A3007 RMK A01 T02070016  RH  028%=      5-min Rain = 0
KME1 242003Z 03006KT 21/01 A3007 RMK A01 T02060013  RH  028%=      5-min Rain = 0
KME1 242004Z 00003KT 20/01 A3007 RMK A01 T02040010  RH  027%=      5-min Rain = 0
KME1 242005Z 35003KT 20/01 A3007 RMK A01 T02020009  RH  028%=      5-min Rain = 0
KME1 242006Z 07003KT 20/02 A3007 RMK A01 T02030018  RH  029%=      5-min Rain = 0
KME1 242007Z 09004KT 21/02 A3007 RMK A01 T02070019  RH  029%=      5-min Rain = 0
KME1 242008Z 10003KT 21/01 A3007 RMK A01 T02070014  RH  028%=      5-min Rain = 0
KME1 242009Z 05004KT 21/02 A3007 RMK A01 T02060018  RH  029%=      5-min Rain = 0
KME1 242010Z 02006KT 21/02 A3007 RMK A01 T02080017  RH  028%=      5-min Rain = 0
KME1 242011Z 02005KT 21/02 A3007 RMK A01 T02080016  RH  028%=      5-min Rain = 0
KME1 242012Z 07006KT 21/02 A3007 RMK A01 T02070015  RH  028%=      5-min Rain = 0
KME1 242013Z 08006KT 21/02 A3007 RMK A01 T02070015  RH  028%=      5-min Rain = 0
KME1 242014Z 10003KT 21/01 A3007 RMK A01 T02050008  RH  027%=      5-min Rain = 0
KME1 242015Z 09005KT 21/02 A3007 RMK A01 T02050019  RH  029%=      5-min Rain = 0
KME1 242016Z 08006KT 21/02 A3007 RMK A01 T02070016  RH  028%=      5-min Rain = 0
KME1 242017Z 06007KT 21/02 A3007 RMK A01 T02090018  RH  028%=      5-min Rain = 0
KME1 242018Z 07007KT 21/02 A3007 RMK A01 T02090019  RH  028%=      5-min Rain = 0
KME1 242019Z 08007KT 21/02 A3007 RMK A01 T02100017  RH  028%=      5-min Rain = 0
KME1 242020Z 07006KT 21/02 A3007 RMK A01 T02090017  RH  028%=      5-min Rain = 0
KME1 242021Z 09006KT 21/02 A3007 RMK A01 T02090022  RH  029%=      5-min Rain = 0
KME1 242022Z 09005KT 21/02 A3007 RMK A01 T02110019  RH  028%=      5-min Rain = 0
KME1 242023Z 08006KT 21/02 A3007 RMK A01 T02100017  RH  028%=      5-min Rain = 0
KME1 242024Z 09004KT 21/02 A3007 RMK A01 T02090015  RH  028%=      5-min Rain = 0
KME1 242025Z 06006KT 21/02 A3007 RMK A01 T02080017  RH  028%=      5-min Rain = 0
KME1 242026Z 09005KT 21/02 A3007 RMK A01 T02090015  RH  028%=      5-min Rain = 0
KME1 242027Z 10006KT 21/02 A3007 RMK A01 T02090017  RH  028%=      5-min Rain = 0
KME1 242028Z 08007KT 21/02 A3007 RMK A01 T02090016  RH  028%=      5-min Rain = 0
KME1 242029Z 06006KT 21/01 A3007 RMK A01 T02080014  RH  027%=      5-min Rain = 0
KME1 242030Z 04005KT 21/02 A3007 RMK A01 T02080016  RH  028%=      5-min Rain = 0
KME1 242031Z 03005KT 21/02 A3007 RMK A01 T02080016  RH  028%=      5-min Rain = 0
KME1 242032Z 01004KT 21/01 A3007 RMK A01 T02090014  RH  027%=      5-min Rain = 0
KME1 242033Z 01003KT 21/02 A3007 RMK A01 T02080015  RH  028%=      5-min Rain = 0
KME1 242034Z 36002KT 21/01 A3007 RMK A01 T02080012  RH  027%=      5-min Rain = 0
KME1 242035Z 02004KT 21/02 A3007 RMK A01 T02090020  RH  029%=      5-min Rain = 0
KME1 242036Z 02004KT 21/02 A3007 RMK A01 T02110017  RH  028%=      5-min Rain = 0
KME1 242037Z 04006KT 21/02 A3007 RMK A01 T02120018  RH  028%=      5-min Rain = 0
KME1 242038Z 06003KT 21/02 A3007 RMK A01 T02120016  RH  027%=      5-min Rain = 0
KME1 242039Z 05004KT 21/02 A3007 RMK A01 T02120020  RH  028%=      5-min Rain = 0
KME1 242040Z 03006KT 21/02 A3007 RMK A01 T02130018  RH  027%=      5-min Rain = 0
KME1 242041Z 03004KT 21/02 A3007 RMK A01 T02120021  RH  028%=      5-min Rain = 0
KME1 242042Z 01005KT 21/03 A3007 RMK A01 T02130025  RH  029%=      5-min Rain = 0
KME1 242043Z 02008KT 22/02 A3006 RMK A01 T02150020  RH  028%=      5-min Rain = 0
KME1 242044Z 03006KT 21/02 A3007 RMK A01 T02130016  RH  027%=      5-min Rain = 0
KME1 242045Z 07003G8KT 21/01 A3006 RMK A01 T02100014  RH  027%=      5-min Rain = 0
KME1 242046Z 07004KT 21/02 A3006 RMK A01 T02090015  RH  027%=      5-min Rain = 0
KME1 242047Z 03006KT 21/01 A3007 RMK A01 T02100013  RH  027%=      5-min Rain = 0
KME1 242048Z 02007KT 21/01 A3007 RMK A01 T02090014  RH  027%=      5-min Rain = 0
KME1 242049Z 01007KT 21/02 A3007 RMK A01 T02080015  RH  028%=      5-min Rain = 0
KME1 242050Z 03006KT 21/01 A3007 RMK A01 T02080012  RH  027%=      5-min Rain = 0
KME1 242051Z 04004KT 21/01 A3006 RMK A01 T02060010  RH  027%=      5-min Rain = 0
KME1 242052Z 04004G9KT 21/01 A3006 RMK A01 T02060011  RH  027%=      5-min Rain = 0
KME1 242053Z 05009KT 21/01 A3006 RMK A01 T02060014  RH  028%=      5-min Rain = 0
KME1 242054Z 06008KT 21/02 A3006 RMK A01 T02090018  RH  028%=      5-min Rain = 0
KME1 242055Z 07006KT 21/02 A3007 RMK A01 T02100015  RH  027%=      5-min Rain = 0
KME1 242056Z 07005KT 21/02 A3006 RMK A01 T02100015  RH  027%=      5-min Rain = 0
KME1 242057Z 04004KT 21/02 A3007 RMK A01 T02100015  RH  027%=      5-min Rain = 0
KME1 242058Z 06004KT 21/02 A3007 RMK A01 T02120018  RH  028%=      5-min Rain = 0
KME1 242059Z 08002KT 21/01 A3007 RMK A01 T02110009  RH  026%=      5-min Rain = 0
KME1 242100Z 10001KT 21/01 A3007 RMK A01 T02090006  RH  026%=      5-min Rain = 0
KME1 242101Z 31000KT 21/01 A3007 RMK A01 T02080006  RH  026%=      5-min Rain = 0
KME1 242102Z 06001KT 21/01 A3007 RMK A01 T02080009  RH  027%=      5-min Rain = 0
KME1 242103Z 07007KT 21/01 A3007 RMK A01 T02100014  RH  027%=      5-min Rain = 0
KME1 242104Z 09004KT 21/01 A3007 RMK A01 T02100010  RH  026%=      5-min Rain = 0
KME1 242105Z 10005KT 21/01 A3007 RMK A01 T02080008  RH  026%=      5-min Rain = 0
KME1 242106Z 12004KT 21/01 A3007 RMK A01 T02070008  RH  027%=      5-min Rain = 0
KME1 242107Z 12004KT 21/01 A3007 RMK A01 T02060010  RH  027%=      5-min Rain = 0
KME1 242108Z 11004KT 21/01 A3007 RMK A01 T02070009  RH  027%=      5-min Rain = 0
KME1 242109Z 12005KT 21/01 A3007 RMK A01 T02080013  RH  027%=      5-min Rain = 0
KME1 242110Z 13003KT 21/01 A3006 RMK A01 T02100014  RH  027%=      5-min Rain = 0
KME1 242111Z 10003KT 21/01 A3006 RMK A01 T02120011  RH  026%=      5-min Rain = 0
KME1 242112Z 11004KT 21/02 A3006 RMK A01 T02130015  RH  027%=      5-min Rain = 0
KME1 242113Z 08004KT 21/02 A3006 RMK A01 T02140015  RH  027%=      5-min Rain = 0
KME1 242114Z 08005KT 21/02 A3006 RMK A01 T02140016  RH  027%=      5-min Rain = 0
KME1 242115Z 09005KT 22/02 A3006 RMK A01 T02150016  RH  027%=      5-min Rain = 0
KME1 242116Z 08005KT 22/01 A3006 RMK A01 T02150012  RH  026%=      5-min Rain = 0
KME1 242117Z 08007KT 21/01 A3006 RMK A01 T02130012  RH  026%=      5-min Rain = 0
KME1 242118Z 04008KT 21/02 A3006 RMK A01 T02140018  RH  027%=      5-min Rain = 0
KME1 242119Z 04005KT 21/01 A3006 RMK A01 T02140014  RH  026%=      5-min Rain = 0
KME1 242120Z 04003KT 21/01 A3006 RMK A01 T02140014  RH  027%=      5-min Rain = 0
KME1 242121Z 06008KT 21/02 A3006 RMK A01 T02140016  RH  027%=      5-min Rain = 0
KME1 242122Z 03009KT 22/02 A3006 RMK A01 T02160016  RH  027%=      5-min Rain = 0
KME1 242123Z 03009KT 22/01 A3006 RMK A01 T02150014  RH  026%=      5-min Rain = 0
KME1 242124Z 03007KT 21/01 A3006 RMK A01 T02120011  RH  026%=      5-min Rain = 0
KME1 242125Z 03005KT 21/01 A3006 RMK A01 T02120014  RH  027%=      5-min Rain = 0
KME1 242126Z 03003KT 21/01 A3006 RMK A01 T02110011  RH  026%=      5-min Rain = 0
KME1 242127Z 08003KT 21/01 A3006 RMK A01 T02110012  RH  027%=      5-min Rain = 0
KME1 242128Z 08004KT 21/01 A3006 RMK A01 T02130013  RH  027%=      5-min Rain = 0
KME1 242129Z 10004KT 21/01 A3006 RMK A01 T02140013  RH  026%=      5-min Rain = 0
KME1 242130Z 09005KT 21/01 A3006 RMK A01 T02140014  RH  027%=      5-min Rain = 0
KME1 242131Z 10009KT 22/01 A3006 RMK A01 T02150013  RH  026%=      5-min Rain = 0
KME1 242132Z 09003G8KT 21/01 A3006 RMK A01 T02140010  RH  026%=      5-min Rain = 0
KME1 242133Z 11004KT 21/01 A3006 RMK A01 T02120011  RH  026%=      5-min Rain = 0
KME1 242134Z 10005KT 21/01 A3006 RMK A01 T02130010  RH  026%=      5-min Rain = 0
KME1 242135Z 10004KT 21/01 A3006 RMK A01 T02120006  RH  025%=      5-min Rain = 0
KME1 242136Z 13006KT 21/01 A3006 RMK A01 T02110011  RH  026%=      5-min Rain = 0
KME1 242137Z 09007KT 21/01 A3006 RMK A01 T02120012  RH  026%=      5-min Rain = 0
KME1 242138Z 08006KT 21/01 A3006 RMK A01 T02130008  RH  026%=      5-min Rain = 0
KME1 242139Z 09003KT 21/01 A3006 RMK A01 T02130009  RH  026%=      5-min Rain = 0
KME1 242140Z 08003KT 21/01 A3006 RMK A01 T02130013  RH  026%=      5-min Rain = 0
KME1 242141Z 05005KT 21/01 A3006 RMK A01 T02130012  RH  026%=      5-min Rain = 0
KME1 242142Z 07006KT 22/01 A3006 RMK A01 T02150012  RH  026%=      5-min Rain = 0
KME1 242143Z 07006KT 22/01 A3006 RMK A01 T02150011  RH  026%=      5-min Rain = 0
KME1 242144Z 06005KT 22/01 A3006 RMK A01 T02150012  RH  026%=      5-min Rain = 0
KME1 242145Z 08006KT 22/01 A3006 RMK A01 T02150010  RH  026%=      5-min Rain = 0
KME1 242146Z 07004KT 22/01 A3006 RMK A01 T02150010  RH  026%=      5-min Rain = 0
KME1 242147Z 07002KT 21/01 A3006 RMK A01 T02140009  RH  026%=      5-min Rain = 0
KME1 242148Z 09001KT 21/01 A3006 RMK A01 T02140005  RH  025%=      5-min Rain = 0
KME1 242149Z 09003KT 21/01 A3006 RMK A01 T02130010  RH  026%=      5-min Rain = 0
KME1 242150Z 08003KT 22/01 A3006 RMK A01 T02150009  RH  025%=      5-min Rain = 0
KME1 242151Z 08005KT 22/01 A3006 RMK A01 T02150008  RH  025%=      5-min Rain = 0
KME1 242152Z 05003KT 21/01 A3006 RMK A01 T02140010  RH  026%=      5-min Rain = 0
KME1 242153Z 05005KT 22/01 A3006 RMK A01 T02150010  RH  026%=      5-min Rain = 0
KME1 242154Z 08004KT 22/01 A3006 RMK A01 T02150010  RH  026%=      5-min Rain = 0
KME1 242155Z 11003KT 22/01 A3006 RMK A01 T02150008  RH  025%=      5-min Rain = 0
KME1 242156Z 03005KT 22/01 A3006 RMK A01 T02160011  RH  026%=      5-min Rain = 0
KME1 242157Z 02006KT 22/01 A3006 RMK A01 T02160008  RH  025%=      5-min Rain = 0
KME1 242158Z 01006KT 22/01 A3006 RMK A01 T02150007  RH  025%=      5-min Rain = 0
KME1 242159Z 02005KT 22/01 A3006 RMK A01 T02150013  RH  026%=      5-min Rain = 0
KME1 242200Z 04005KT 22/01 A3006 RMK A01 T02160011  RH  026%=      5-min Rain = 0
KME1 242201Z 03003KT 22/01 A3006 RMK A01 T02160010  RH  026%=      5-min Rain = 0
KME1 242202Z 03005KT 22/02 A3006 RMK A01 T02170016  RH  027%=      5-min Rain = 0
KME1 242203Z 05008KT 22/01 A3006 RMK A01 T02190013  RH  026%=      5-min Rain = 0
KME1 242204Z 05008KT 22/01 A3006 RMK A01 T02180014  RH  026%=      5-min Rain = 0
KME1 242205Z 04005KT 22/01 A3006 RMK A01 T02170010  RH  025%=      5-min Rain = 0
KME1 242206Z 02004KT 22/01 A3006 RMK A01 T02150009  RH  025%=      5-min Rain = 0
KME1 242207Z 01006KT 21/01 A3006 RMK A01 T02140013  RH  026%=      5-min Rain = 0
KME1 242208Z 02007KT 22/02 A3006 RMK A01 T02160016  RH  027%=      5-min Rain = 0
KME1 242209Z 09005KT 22/01 A3006 RMK A01 T02170013  RH  026%=      5-min Rain = 0
KME1 242210Z 09007KT 22/01 A3006 RMK A01 T02160011  RH  026%=      5-min Rain = 0
KME1 242211Z 09005KT 21/01 A3006 RMK A01 T02140006  RH  025%=      5-min Rain = 0
KME1 242212Z 07005KT 21/01 A3006 RMK A01 T02130009  RH  026%=      5-min Rain = 0
KME1 242213Z 09007KT 21/01 A3006 RMK A01 T02140010  RH  026%=      5-min Rain = 0
KME1 242214Z 10007KT 22/01 A3006 RMK A01 T02150010  RH  026%=      5-min Rain = 0
KME1 242215Z 06005KT 22/01 A3006 RMK A01 T02150011  RH  026%=      5-min Rain = 0
KME1 242216Z 06006KT 22/02 A3006 RMK A01 T02160015  RH  026%=      5-min Rain = 0
KME1 242217Z 06007KT 22/01 A3006 RMK A01 T02180013  RH  026%=      5-min Rain = 0
KME1 242218Z 05006KT 22/01 A3006 RMK A01 T02180011  RH  025%=      5-min Rain = 0
KME1 242219Z 04005KT 22/01 A3006 RMK A01 T02170010  RH  025%=      5-min Rain = 0
KME1 242220Z 05006KT 22/01 A3006 RMK A01 T02170010  RH  025%=      5-min Rain = 0
KME1 242221Z 04006KT 22/01 A3006 RMK A01 T02160010  RH  025%=      5-min Rain = 0
KME1 242222Z 04004KT 22/01 A3006 RMK A01 T02150008  RH  025%=      5-min Rain = 0
KME1 242223Z 02002KT 21/01 A3006 RMK A01 T02140005  RH  025%=      5-min Rain = 0
KME1 242224Z 08003KT 21/01 A3006 RMK A01 T02140006  RH  025%=      5-min Rain = 0
KME1 242225Z 09006KT 21/01 A3006 RMK A01 T02140008  RH  025%=      5-min Rain = 0
KME1 242226Z 10005KT 22/01 A3006 RMK A01 T02150006  RH  025%=      5-min Rain = 0
KME1 242227Z 06004KT 22/01 A3006 RMK A01 T02150009  RH  026%=      5-min Rain = 0
KME1 242228Z 05004KT 21/01 A3006 RMK A01 T02140005  RH  025%=      5-min Rain = 0
KME1 242229Z 06002KT 21/01 A3006 RMK A01 T02140005  RH  025%=      5-min Rain = 0
KME1 242230Z 14000KT 21/00 A3006 RMK A01 T02140002  RH  024%=      5-min Rain = 0
KME1 242231Z 09002KT 22/01 A3006 RMK A01 T02150005  RH  025%=      5-min Rain = 0
KME1 242232Z 09006KT 22/01 A3006 RMK A01 T02170008  RH  025%=      5-min Rain = 0
KME1 242233Z 09006KT 22/01 A3006 RMK A01 T02160006  RH  025%=      5-min Rain = 0
KME1 242234Z 09004KT 22/01 A3006 RMK A01 T02150006  RH  025%=      5-min Rain = 0
KME1 242235Z 07003KT 22/01 A3006 RMK A01 T02150005  RH  025%=      5-min Rain = 0
KME1 242236Z 08001KT 22/01 A3006 RMK A01 T02150006  RH  025%=      5-min Rain = 0
KME1 242237Z 09003KT 22/01 A3006 RMK A01 T02150005  RH  025%=      5-min Rain = 0
KME1 242238Z 09002KT 22/01 A3006 RMK A01 T02150006  RH  025%=      5-min Rain = 0
KME1 242239Z 09002KT 22/01 A3006 RMK A01 T02150005  RH  025%=      5-min Rain = 0
KME1 242240Z 08002KT 22/00 A3006 RMK A01 T02150004  RH  025%=      5-min Rain = 0
KME1 242241Z 06002KT 22/01 A3005 RMK A01 T02150006  RH  025%=      5-min Rain = 0
KME1 242242Z 02005KT 22/01 A3005 RMK A01 T02160009  RH  025%=      5-min Rain = 0
KME1 242243Z 03005KT 22/01 A3005 RMK A01 T02170008  RH  025%=      5-min Rain = 0
KME1 242244Z 03004KT 22/01 A3005 RMK A01 T02170008  RH  025%=      5-min Rain = 0
KME1 242245Z 03004KT 22/01 A3005 RMK A01 T02160005  RH  025%=      5-min Rain = 0
KME1 242246Z 06004KT 22/01 A3006 RMK A01 T02150007  RH  025%=      5-min Rain = 0
KME1 242247Z 07004KT 22/01 A3006 RMK A01 T02150008  RH  025%=      5-min Rain = 0
KME1 242248Z 09002KT 22/01 A3006 RMK A01 T02150008  RH  025%=      5-min Rain = 0
KME1 242249Z 06003KT 21/01 A3006 RMK A01 T02140009  RH  026%=      5-min Rain = 0
KME1 242250Z 07002KT 22/01 A3006 RMK A01 T02150011  RH  026%=      5-min Rain = 0
KME1 242251Z 03002KT 22/01 A3006 RMK A01 T02160010  RH  025%=      5-min Rain = 0
KME1 242252Z 06003KT 22/01 A3006 RMK A01 T02170013  RH  026%=      5-min Rain = 0
KME1 242253Z 10004KT 22/01 A3006 RMK A01 T02180012  RH  026%=      5-min Rain = 0
KME1 242254Z 11006KT 22/01 A3006 RMK A01 T02180012  RH  026%=      5-min Rain = 0
KME1 242255Z 10005KT 22/01 A3005 RMK A01 T02170012  RH  026%=      5-min Rain = 0
KME1 242256Z 05004KT 22/01 A3005 RMK A01 T02170012  RH  026%=      5-min Rain = 0
KME1 242257Z 06004KT 22/01 A3005 RMK A01 T02170011  RH  026%=      5-min Rain = 0
KME1 242258Z 07005KT 22/01 A3005 RMK A01 T02170013  RH  026%=      5-min Rain = 0
KME1 242259Z 07006KT 22/01 A3005 RMK A01 T02170012  RH  026%=      5-min Rain = 0
KME1 242300Z 07007KT 22/01 A3005 RMK A01 T02170013  RH  026%=      5-min Rain = 0
KME1 242301Z 08005KT 22/01 A3005 RMK A01 T02170013  RH  026%=      5-min Rain = 0
KME1 242302Z 09005KT 22/01 A3005 RMK A01 T02150011  RH  026%=      5-min Rain = 0
KME1 242303Z 08004KT 21/01 A3005 RMK A01 T02140010  RH  026%=      5-min Rain = 0
KME1 242304Z 08006KT 21/01 A3005 RMK A01 T02140011  RH  026%=      5-min Rain = 0
KME1 242305Z 08006KT 21/01 A3005 RMK A01 T02130010  RH  026%=      5-min Rain = 0
KME1 242306Z 08005KT 21/01 A3005 RMK A01 T02130010  RH  026%=      5-min Rain = 0
KME1 242307Z 07003KT 21/01 A3005 RMK A01 T02120011  RH  026%=      5-min Rain = 0
KME1 242308Z 06003KT 21/01 A3005 RMK A01 T02130013  RH  027%=      5-min Rain = 0
KME1 242309Z 06007KT 21/01 A3005 RMK A01 T02140014  RH  026%=      5-min Rain = 0
KME1 242310Z 05007KT 21/01 A3005 RMK A01 T02140013  RH  026%=      5-min Rain = 0
KME1 242311Z 05008KT 22/01 A3005 RMK A01 T02150014  RH  026%=      5-min Rain = 0
KME1 242312Z 06006KT 21/01 A3005 RMK A01 T02140011  RH  026%=      5-min Rain = 0
KME1 242313Z 06006KT 21/01 A3005 RMK A01 T02130013  RH  026%=      5-min Rain = 0
KME1 242314Z 05005KT 21/01 A3005 RMK A01 T02130010  RH  026%=      5-min Rain = 0
KME1 242315Z 06005KT 21/01 A3005 RMK A01 T02120010  RH  026%=      5-min Rain = 0
KME1 242316Z 06006KT 21/01 A3005 RMK A01 T02120013  RH  027%=      5-min Rain = 0
KME1 242317Z 06008KT 21/01 A3005 RMK A01 T02120012  RH  026%=      5-min Rain = 0
KME1 242318Z 07006KT 21/01 A3005 RMK A01 T02110010  RH  026%=      5-min Rain = 0
KME1 242319Z 07006KT 21/01 A3005 RMK A01 T02100013  RH  027%=      5-min Rain = 0
KME1 242320Z 07006KT 21/01 A3005 RMK A01 T02100012  RH  027%=      5-min Rain = 0
KME1 242321Z 06006KT 21/01 A3005 RMK A01 T02100012  RH  027%=      5-min Rain = 0
KME1 242322Z 07006KT 21/01 A3005 RMK A01 T02110012  RH  027%=      5-min Rain = 0
KME1 242323Z 06006KT 21/01 A3005 RMK A01 T02100013  RH  027%=      5-min Rain = 0
KME1 242324Z 07006KT 21/01 A3005 RMK A01 T02100012  RH  027%=      5-min Rain = 0
KME1 242325Z 08006KT 21/01 A3005 RMK A01 T02100014  RH  027%=      5-min Rain = 0
KME1 242326Z 07007KT 21/01 A3005 RMK A01 T02100013  RH  027%=      5-min Rain = 0
KME1 242327Z 06007KT 21/01 A3005 RMK A01 T02100014  RH  027%=      5-min Rain = 0
KME1 242328Z 08006KT 21/02 A3005 RMK A01 T02100015  RH  027%=      5-min Rain = 0
KME1 242329Z 07007KT 21/01 A3005 RMK A01 T02100014  RH  027%=      5-min Rain = 0
KME1 242330Z 07007KT 21/01 A3005 RMK A01 T02100014  RH  027%=      5-min Rain = 0
KME1 242331Z 07006KT 21/01 A3005 RMK A01 T02090012  RH  027%=      5-min Rain = 0
KME1 242332Z 06006KT 21/01 A3005 RMK A01 T02080013  RH  027%=      5-min Rain = 0
KME1 242333Z 05006KT 21/01 A3005 RMK A01 T02080014  RH  028%=      5-min Rain = 0
KME1 242334Z 05008KT 21/02 A3005 RMK A01 T02080015  RH  028%=      5-min Rain = 0
KME1 242335Z 06009KT 21/01 A3005 RMK A01 T02070014  RH  028%=      5-min Rain = 0
KME1 242336Z 08008KT 21/01 A3005 RMK A01 T02070013  RH  028%=      5-min Rain = 0
KME1 242337Z 06006KT 21/01 A3005 RMK A01 T02060014  RH  028%=      5-min Rain = 0
KME1 242338Z 06007KT 21/02 A3005 RMK A01 T02060015  RH  028%=      5-min Rain = 0
KME1 242339Z 06007KT 21/01 A3005 RMK A01 T02060013  RH  028%=      5-min Rain = 0
KME1 242340Z 06006KT 21/01 A3005 RMK A01 T02060013  RH  028%=      5-min Rain = 0
KME1 242341Z 07005KT 21/02 A3005 RMK A01 T02050015  RH  028%=      5-min Rain = 0
KME1 242342Z 07006KT 21/01 A3005 RMK A01 T02050012  RH  028%=      5-min Rain = 0
KME1 242343Z 07007KT 21/02 A3005 RMK A01 T02050015  RH  028%=      5-min Rain = 0
KME1 242344Z 07006KT 21/01 A3006 RMK A01 T02050013  RH  028%=      5-min Rain = 0
KME1 242345Z 07008KT 21/01 A3006 RMK A01 T02050013  RH  028%=      5-min Rain = 0
KME1 242346Z 07007KT 20/01 A3006 RMK A01 T02040012  RH  028%=      5-min Rain = 0
KME1 242347Z 07007KT 20/01 A3006 RMK A01 T02040012  RH  028%=      5-min Rain = 0
KME1 242348Z 07007KT 20/01 A3006 RMK A01 T02030012  RH  028%=      5-min Rain = 0
KME1 242349Z 07007KT 20/01 A3005 RMK A01 T02020010  RH  028%=      5-min Rain = 0
KME1 242350Z 08005KT 20/01 A3005 RMK A01 T02020012  RH  028%=      5-min Rain = 0
KME1 242351Z 08005KT 20/01 A3005 RMK A01 T02010013  RH  029%=      5-min Rain = 0
KME1 242352Z 06005KT 20/01 A3005 RMK A01 T02010014  RH  029%=      5-min Rain = 0
KME1 242353Z 06005KT 20/02 A3005 RMK A01 T02000015  RH  029%=      5-min Rain = 0
KME1 242354Z 06007KT 20/02 A3005 RMK A01 T02000015  RH  029%=      5-min Rain = 0
KME1 242355Z 07006KT 20/01 A3005 RMK A01 T02000013  RH  029%=      5-min Rain = 0
KME1 242356Z 08006KT 20/02 A3005 RMK A01 T01990015  RH  029%=      5-min Rain = 0
KME1 242357Z 08007KT 20/01 A3006 RMK A01 T01990013  RH  029%=      5-min Rain = 0
KME1 242358Z 07005KT 20/01 A3006 RMK A01 T01990014  RH  029%=      5-min Rain = 0
KME1 242359Z 07005KT 20/02 A3005 RMK A01 T01990016  RH  029%=      5-min Rain = 0
KME1 250000Z 07005KT 20/02 A3006 RMK A01 T01980015  RH  029%=      5-min Rain = 0
KME1 250001Z 07006KT 20/02 A3006 RMK A01 T01980015  RH  029%=      5-min Rain = 0
KME1 250002Z 07005KT 20/02 A3006 RMK A01 T01980015  RH  029%=      5-min Rain = 0
KME1 250003Z 07007KT 20/02 A3006 RMK A01 T01980015  RH  030%=      5-min Rain = 0
KME1 250004Z 07007KT 20/02 A3006 RMK A01 T01970015  RH  030%=      5-min Rain = 0
KME1 250005Z 07006KT 20/02 A3006 RMK A01 T01970015  RH  030%=      5-min Rain = 0
KME1 250006Z 07006KT 20/02 A3006 RMK A01 T01960015  RH  030%=      5-min Rain = 0
KME1 250007Z 07008KT 20/02 A3006 RMK A01 T01950015  RH  030%=      5-min Rain = 0
KME1 250008Z 07008KT 19/01 A3006 RMK A01 T01940014  RH  030%=      5-min Rain = 0
KME1 250009Z 07008KT 19/01 A3006 RMK A01 T01940014  RH  030%=      5-min Rain = 0
KME1 250010Z 07006KT 19/01 A3006 RMK A01 T01930014  RH  030%=      5-min Rain = 0
KME1 250011Z 07006KT 19/02 A3006 RMK A01 T01920015  RH  031%=      5-min Rain = 0
KME1 250012Z 07005KT 19/02 A3006 RMK A01 T01920015  RH  031%=      5-min Rain = 0
KME1 250013Z 07006KT 19/02 A3006 RMK A01 T01910016  RH  031%=      5-min Rain = 0
KME1 250014Z 07007KT 19/02 A3006 RMK A01 T01900015  RH  031%=      5-min Rain = 0
KME1 250015Z 07008KT 19/02 A3006 RMK A01 T01900016  RH  031%=      5-min Rain = 0
KME1 250016Z 07007KT 19/02 A3006 RMK A01 T01890016  RH  031%=      5-min Rain = 0
KME1 250017Z 08007KT 19/02 A3006 RMK A01 T01890016  RH  031%=      5-min Rain = 0
KME1 250018Z 07006KT 19/02 A3006 RMK A01 T01890015  RH  031%=      5-min Rain = 0
KME1 250019Z 07006KT 19/02 A3006 RMK A01 T01890016  RH  031%=      5-min Rain = 0
KME1 250020Z 07006KT 19/02 A3006 RMK A01 T01880015  RH  032%=      5-min Rain = 0
KME1 250021Z 07005KT 19/02 A3006 RMK A01 T01870016  RH  032%=      5-min Rain = 0
KME1 250022Z 07006KT 19/02 A3006 RMK A01 T01870017  RH  032%=      5-min Rain = 0
KME1 250023Z 07007KT 19/02 A3006 RMK A01 T01850016  RH  032%=      5-min Rain = 0
KME1 250024Z 07008KT 19/02 A3006 RMK A01 T01850017  RH  032%=      5-min Rain = 0
KME1 250025Z 07005KT 18/02 A3006 RMK A01 T01840018  RH  033%=      5-min Rain = 0
KME1 250026Z 07007KT 18/02 A3006 RMK A01 T01830017  RH  033%=      5-min Rain = 0
KME1 250027Z 07006KT 18/02 A3006 RMK A01 T01820017  RH  033%=      5-min Rain = 0
KME1 250028Z 06006KT 18/02 A3006 RMK A01 T01820018  RH  033%=      5-min Rain = 0
KME1 250029Z 07005KT 18/02 A3006 RMK A01 T01810018  RH  034%=      5-min Rain = 0
KME1 250030Z 07006KT 18/02 A3006 RMK A01 T01790018  RH  034%=      5-min Rain = 0
KME1 250031Z 07005KT 18/02 A3006 RMK A01 T01770019  RH  035%=      5-min Rain = 0
KME1 250032Z 06005KT 18/02 A3006 RMK A01 T01760019  RH  035%=      5-min Rain = 0
KME1 250033Z 07005KT 17/02 A3006 RMK A01 T01740019  RH  035%=      5-min Rain = 0
KME1 250034Z 06006KT 17/02 A3006 RMK A01 T01740018  RH  035%=      5-min Rain = 0
KME1 250035Z 06007KT 17/02 A3007 RMK A01 T01740019  RH  035%=      5-min Rain = 0
KME1 250036Z 06006KT 17/02 A3007 RMK A01 T01740019  RH  035%=      5-min Rain = 0
KME1 250037Z 06005KT 17/02 A3007 RMK A01 T01740019  RH  035%=      5-min Rain = 0
KME1 250038Z 07006KT 17/02 A3007 RMK A01 T01720019  RH  036%=      5-min Rain = 0
KME1 250039Z 06004KT 17/02 A3007 RMK A01 T01720019  RH  036%=      5-min Rain = 0
KME1 250040Z 07006KT 17/02 A3007 RMK A01 T01710018  RH  036%=      5-min Rain = 0
KME1 250041Z 07005KT 17/02 A3007 RMK A01 T01710018  RH  036%=      5-min Rain = 0
KME1 250042Z 07006KT 17/02 A3007 RMK A01 T01710018  RH  036%=      5-min Rain = 0
KME1 250043Z 07006KT 17/02 A3007 RMK A01 T01710018  RH  036%=      5-min Rain = 0
KME1 250044Z 07005KT 17/02 A3007 RMK A01 T01700018  RH  036%=      5-min Rain = 0
KME1 250045Z 07005KT 17/02 A3007 RMK A01 T01700018  RH  036%=      5-min Rain = 0
KME1 250046Z 07005KT 17/02 A3007 RMK A01 T01690018  RH  036%=      5-min Rain = 0
KME1 250047Z 07004KT 17/02 A3007 RMK A01 T01670018  RH  036%=      5-min Rain = 0
KME1 250048Z 07004KT 17/02 A3007 RMK A01 T01670017  RH  037%=      5-min Rain = 0
KME1 250049Z 06004KT 17/02 A3007 RMK A01 T01660018  RH  037%=      5-min Rain = 0
KME1 250050Z 06004KT 17/02 A3007 RMK A01 T01650018  RH  037%=      5-min Rain = 0
KME1 250051Z 06004KT 16/02 A3008 RMK A01 T01630017  RH  037%=      5-min Rain = 0
KME1 250052Z 06004KT 16/02 A3008 RMK A01 T01620017  RH  037%=      5-min Rain = 0
KME1 250053Z 07004KT 16/02 A3008 RMK A01 T01620017  RH  038%=      5-min Rain = 0
KME1 250054Z 07004KT 16/02 A3008 RMK A01 T01610017  RH  038%=      5-min Rain = 0
KME1 250055Z 07004KT 16/02 A3008 RMK A01 T01600017  RH  038%=      5-min Rain = 0
KME1 250056Z 08004KT 16/02 A3008 RMK A01 T01590017  RH  038%=      5-min Rain = 0
KME1 250057Z 08005KT 16/02 A3008 RMK A01 T01590017  RH  038%=      5-min Rain = 0
KME1 250058Z 07004KT 16/02 A3008 RMK A01 T01590017  RH  038%=      5-min Rain = 0
KME1 250059Z 07005KT 16/02 A3008 RMK A01 T01580017  RH  038%=      5-min Rain = 0
KME1 250100Z 07005KT 16/02 A3008 RMK A01 T01580017  RH  038%=      5-min Rain = 0
KME1 250101Z 07004KT 16/02 A3008 RMK A01 T01580017  RH  039%=      5-min Rain = 0
KME1 250102Z 07004KT 16/02 A3008 RMK A01 T01580017  RH  039%=      5-min Rain = 0
KME1 250103Z 07004KT 16/02 A3008 RMK A01 T01570017  RH  039%=      5-min Rain = 0
KME1 250104Z 07004KT 16/02 A3008 RMK A01 T01560017  RH  039%=      5-min Rain = 0
KME1 250105Z 07004KT 16/02 A3008 RMK A01 T01560017  RH  039%=      5-min Rain = 0
KME1 250106Z 07005KT 16/02 A3008 RMK A01 T01550017  RH  039%=      5-min Rain = 0
KME1 250107Z 07004KT 16/02 A3008 RMK A01 T01550017  RH  039%=      5-min Rain = 0
KME1 250108Z 07004KT 15/02 A3008 RMK A01 T01540017  RH  039%=      5-min Rain = 0
KME1 250109Z 07005KT 15/02 A3008 RMK A01 T01530017  RH  040%=      5-min Rain = 0
KME1 250110Z 07004KT 15/02 A3008 RMK A01 T01530017  RH  040%=      5-min Rain = 0
KME1 250111Z 07004KT 15/02 A3008 RMK A01 T01520017  RH  040%=      5-min Rain = 0
KME1 250112Z 07005KT 15/02 A3008 RMK A01 T01510017  RH  040%=      5-min Rain = 0
KME1 250113Z 07005KT 15/02 A3008 RMK A01 T01500017  RH  040%=      5-min Rain = 0
KME1 250114Z 07005KT 15/02 A3008 RMK A01 T01500016  RH  040%=      5-min Rain = 0
KME1 250115Z 07005KT 15/02 A3008 RMK A01 T01500017  RH  040%=      5-min Rain = 0
KME1 250116Z 07005KT 15/02 A3008 RMK A01 T01490017  RH  041%=      5-min Rain = 0
KME1 250117Z 06005KT 15/02 A3008 RMK A01 T01490017  RH  041%=      5-min Rain = 0
KME1 250118Z 07005KT 15/02 A3008 RMK A01 T01490017  RH  041%=      5-min Rain = 0
KME1 250119Z 07005KT 15/02 A3009 RMK A01 T01480017  RH  041%=      5-min Rain = 0
KME1 250120Z 07005KT 15/02 A3009 RMK A01 T01480017  RH  041%=      5-min Rain = 0
KME1 250121Z 07004KT 15/02 A3009 RMK A01 T01480017  RH  041%=      5-min Rain = 0
KME1 250122Z 07004KT 15/02 A3009 RMK A01 T01480017  RH  041%=      5-min Rain = 0
KME1 250123Z 07005KT 15/02 A3009 RMK A01 T01480017  RH  041%=      5-min Rain = 0
KME1 250124Z 07004KT 15/02 A3009 RMK A01 T01470017  RH  041%=      5-min Rain = 0
KME1 250125Z 06004KT 15/02 A3009 RMK A01 T01460017  RH  042%=      5-min Rain = 0
KME1 250126Z 06004KT 15/02 A3009 RMK A01 T01450016  RH  042%=      5-min Rain = 0
KME1 250127Z 06004KT 14/02 A3009 RMK A01 T01440017  RH  042%=      5-min Rain = 0
KME1 250128Z 06004KT 14/02 A3009 RMK A01 T01430017  RH  042%=      5-min Rain = 0
KME1 250129Z 06004KT 14/02 A3009 RMK A01 T01430017  RH  043%=      5-min Rain = 0
KME1 250130Z 06004KT 14/02 A3009 RMK A01 T01420017  RH  043%=      5-min Rain = 0
KME1 250131Z 06005KT 14/02 A3009 RMK A01 T01420017  RH  043%=      5-min Rain = 0
KME1 250132Z 06005KT 14/02 A3009 RMK A01 T01420017  RH  043%=      5-min Rain = 0
KME1 250133Z 06004KT 14/02 A3009 RMK A01 T01420017  RH  043%=      5-min Rain = 0
KME1 250134Z 06004KT 14/02 A3009 RMK A01 T01420017  RH  043%=      5-min Rain = 0
KME1 250135Z 06005KT 14/02 A3009 RMK A01 T01410017  RH  043%=      5-min Rain = 0
KME1 250136Z 07005KT 14/02 A3009 RMK A01 T01410017  RH  043%=      5-min Rain = 0
KME1 250137Z 06005KT 14/02 A3009 RMK A01 T01410017  RH  043%=      5-min Rain = 0
KME1 250138Z 07005KT 14/02 A301 RMK A01 T01410017  RH  043%=      5-min Rain = 0
KME1 250139Z 06004KT 14/02 A301 RMK A01 T01420018  RH  043%=      5-min Rain = 0
KME1 250140Z 07004KT 14/02 A301 RMK A01 T01410017  RH  043%=      5-min Rain = 0
KME1 250141Z 07004KT 14/02 A301 RMK A01 T01400017  RH  043%=      5-min Rain = 0
KME1 250142Z 07005KT 14/02 A301 RMK A01 T01390017  RH  044%=      5-min Rain = 0
KME1 250143Z 06005KT 14/02 A301 RMK A01 T01380017  RH  044%=      5-min Rain = 0
KME1 250144Z 06005KT 14/02 A301 RMK A01 T01390017  RH  044%=      5-min Rain = 0
KME1 250145Z 06005KT 14/02 A301 RMK A01 T01380017  RH  044%=      5-min Rain = 0
KME1 250146Z 06005KT 14/02 A301 RMK A01 T01380018  RH  044%=      5-min Rain = 0
KME1 250147Z 06005KT 14/02 A301 RMK A01 T01370018  RH  044%=      5-min Rain = 0
KME1 250148Z 07005KT 14/02 A301 RMK A01 T01370018  RH  044%=      5-min Rain = 0
KME1 250149Z 07005KT 14/02 A301 RMK A01 T01370018  RH  044%=      5-min Rain = 0
KME1 250150Z 06005KT 14/02 A301 RMK A01 T01370019  RH  045%=      5-min Rain = 0
KME1 250151Z 05004KT 14/02 A301 RMK A01 T01360018  RH  045%=      5-min Rain = 0
KME1 250152Z 05003KT 14/02 A301 RMK A01 T01350018  RH  045%=      5-min Rain = 0
KME1 250153Z 06004KT 13/02 A301 RMK A01 T01340018  RH  045%=      5-min Rain = 0
KME1 250154Z 05003KT 13/02 A301 RMK A01 T01340017  RH  045%=      5-min Rain = 0
KME1 250155Z 05003KT 13/02 A301 RMK A01 T01330016  RH  045%=      5-min Rain = 0
KME1 250156Z 05003KT 13/02 A301 RMK A01 T01310016  RH  045%=      5-min Rain = 0
KME1 250157Z 04003KT 13/02 A301 RMK A01 T01300015  RH  045%=      5-min Rain = 0
KME1 250158Z 04003KT 13/02 A301 RMK A01 T01300015  RH  046%=      5-min Rain = 0
KME1 250159Z 04003KT 13/02 A301 RMK A01 T01290015  RH  046%=      5-min Rain = 0
KME1 250200Z 04003KT 13/02 A301 RMK A01 T01280015  RH  046%=      5-min Rain = 0
KME1 250201Z 05003KT 13/02 A301 RMK A01 T01270015  RH  046%=      5-min Rain = 0
KME1 250202Z 06003KT 13/02 A301 RMK A01 T01250015  RH  047%=      5-min Rain = 0
KME1 250203Z 06003KT 12/02 A301 RMK A01 T01240015  RH  047%=      5-min Rain = 0
KME1 250204Z 06002KT 12/02 A301 RMK A01 T01240015  RH  047%=      5-min Rain = 0
KME1 250205Z 07002KT 12/02 A301 RMK A01 T01230015  RH  048%=      5-min Rain = 0
KME1 250206Z 07002KT 12/02 A301 RMK A01 T01220015  RH  048%=      5-min Rain = 0
KME1 250207Z 06002KT 12/02 A301 RMK A01 T01220015  RH  048%=      5-min Rain = 0
KME1 250208Z 06002KT 12/02 A301 RMK A01 T01230015  RH  048%=      5-min Rain = 0
KME1 250209Z 06003KT 12/02 A301 RMK A01 T01230015  RH  048%=      5-min Rain = 0
KME1 250210Z 06003KT 12/02 A301 RMK A01 T01230015  RH  048%=      5-min Rain = 0
KME1 250211Z 08003KT 12/02 A301 RMK A01 T01240015  RH  048%=      5-min Rain = 0
KME1 250212Z 07003KT 12/02 A301 RMK A01 T01240015  RH  047%=      5-min Rain = 0
KME1 250213Z 05003KT 12/02 A301 RMK A01 T01240015  RH  047%=      5-min Rain = 0
KME1 250214Z 06003KT 12/02 A301 RMK A01 T01240015  RH  047%=      5-min Rain = 0
KME1 250215Z 05003KT 12/02 A301 RMK A01 T01240015  RH  047%=      5-min Rain = 0
KME1 250216Z 04003KT 12/02 A301 RMK A01 T01230015  RH  048%=      5-min Rain = 0
KME1 250217Z 05003KT 12/02 A301 RMK A01 T01220015  RH  048%=      5-min Rain = 0
KME1 250218Z 05003KT 12/02 A301 RMK A01 T01210015  RH  048%=      5-min Rain = 0
KME1 250219Z 05003KT 12/01 A301 RMK A01 T01190014  RH  049%=      5-min Rain = 0
KME1 250220Z 05003KT 12/02 A3011 RMK A01 T01190015  RH  049%=      5-min Rain = 0
KME1 250221Z 06003KT 12/02 A3011 RMK A01 T01180015  RH  049%=      5-min Rain = 0
KME1 250222Z 06003KT 12/02 A3011 RMK A01 T01190015  RH  049%=      5-min Rain = 0
KME1 250223Z 05003KT 12/02 A3011 RMK A01 T01190015  RH  049%=      5-min Rain = 0
KME1 250224Z 04003KT 12/02 A3011 RMK A01 T01200016  RH  049%=      5-min Rain = 0
KME1 250225Z 04003KT 12/02 A3011 RMK A01 T01200015  RH  049%=      5-min Rain = 0
KME1 250226Z 04003KT 12/02 A3011 RMK A01 T01200015  RH  049%=      5-min Rain = 0
KME1 250227Z 04003KT 12/02 A3011 RMK A01 T01190015  RH  049%=      5-min Rain = 0
KME1 250228Z 04003KT 12/02 A3011 RMK A01 T01180015  RH  049%=      5-min Rain = 0
KME1 250229Z 04003KT 12/02 A3011 RMK A01 T01160015  RH  050%=      5-min Rain = 0
KME1 250230Z 04004KT 12/02 A3011 RMK A01 T01150015  RH  050%=      5-min Rain = 0
KME1 250231Z 04004KT 11/02 A3011 RMK A01 T01140015  RH  050%=      5-min Rain = 0
KME1 250232Z 03004KT 11/02 A3011 RMK A01 T01130015  RH  051%=      5-min Rain = 0
KME1 250233Z 03004KT 11/02 A3011 RMK A01 T01130015  RH  051%=      5-min Rain = 0
KME1 250234Z 03004KT 11/02 A3011 RMK A01 T01120015  RH  051%=      5-min Rain = 0
KME1 250235Z 03004KT 11/02 A3011 RMK A01 T01120015  RH  051%=      5-min Rain = 0
KME1 250236Z 03004KT 11/02 A3011 RMK A01 T01110015  RH  052%=      5-min Rain = 0
KME1 250237Z 03004KT 11/02 A3011 RMK A01 T01090015  RH  052%=      5-min Rain = 0
KME1 250238Z 02004KT 11/02 A3011 RMK A01 T01080015  RH  052%=      5-min Rain = 0
KME1 250239Z 03004KT 11/02 A3011 RMK A01 T01070015  RH  053%=      5-min Rain = 0
KME1 250240Z 02004KT 11/02 A3011 RMK A01 T01060015  RH  053%=      5-min Rain = 0
KME1 250241Z 02004KT 11/02 A3011 RMK A01 T01050015  RH  053%=      5-min Rain = 0
KME1 250242Z 03004KT 11/02 A3012 RMK A01 T01050015  RH  054%=      5-min Rain = 0
KME1 250243Z 02004KT 11/02 A3012 RMK A01 T01050015  RH  054%=      5-min Rain = 0
KME1 250244Z 02004KT 11/02 A3012 RMK A01 T01050015  RH  054%=      5-min Rain = 0
KME1 250245Z 03004KT 11/02 A3012 RMK A01 T01050015  RH  054%=      5-min Rain = 0
KME1 250246Z 03004KT 11/02 A3012 RMK A01 T01050015  RH  054%=      5-min Rain = 0
KME1 250247Z 03003KT 11/02 A3012 RMK A01 T01050015  RH  054%=      5-min Rain = 0
KME1 250248Z 03003KT 11/02 A3012 RMK A01 T01050015  RH  054%=      5-min Rain = 0
KME1 250249Z 03004KT 11/02 A3012 RMK A01 T01050015  RH  054%=      5-min Rain = 0
KME1 250250Z 03004KT 11/02 A3012 RMK A01 T01050016  RH  054%=      5-min Rain = 0
KME1 250251Z 03004KT 11/02 A3012 RMK A01 T01050015  RH  054%=      5-min Rain = 0
KME1 250252Z 03004KT 11/02 A3012 RMK A01 T01050016  RH  054%=      5-min Rain = 0
KME1 250253Z 03004KT 11/02 A3012 RMK A01 T01050016  RH  054%=      5-min Rain = 0
KME1 250254Z 04004KT 10/02 A3012 RMK A01 T01040016  RH  054%=      5-min Rain = 0
KME1 250255Z 04004KT 10/02 A3012 RMK A01 T01040016  RH  054%=      5-min Rain = 0
KME1 250256Z 04004KT 10/02 A3012 RMK A01 T01040016  RH  054%=      5-min Rain = 0
KME1 250257Z 04004KT 10/02 A3012 RMK A01 T01040016  RH  054%=      5-min Rain = 0
KME1 250258Z 04004KT 10/02 A3012 RMK A01 T01040016  RH  054%=      5-min Rain = 0
KME1 250259Z 04003KT 10/02 A3012 RMK A01 T01040016  RH  054%=      5-min Rain = 0
KME1 250300Z 04003KT 10/02 A3012 RMK A01 T01040016  RH  054%=      5-min Rain = 0
KME1 250301Z 04003KT 10/02 A3012 RMK A01 T01040016  RH  054%=      5-min Rain = 0
KME1 250302Z 04003KT 10/02 A3012 RMK A01 T01040016  RH  054%=      5-min Rain = 0
KME1 250303Z 04003KT 10/02 A3012 RMK A01 T01040016  RH  054%=      5-min Rain = 0
KME1 250304Z 04004KT 10/02 A3012 RMK A01 T01040016  RH  055%=      5-min Rain = 0
KME1 250305Z 04003KT 10/02 A3012 RMK A01 T01030016  RH  055%=      5-min Rain = 0
KME1 250306Z 04004KT 10/02 A3012 RMK A01 T01030016  RH  055%=      5-min Rain = 0
KME1 250307Z 04004KT 10/02 A3012 RMK A01 T01030016  RH  055%=      5-min Rain = 0
KME1 250308Z 04004KT 10/02 A3012 RMK A01 T01030016  RH  055%=      5-min Rain = 0
KME1 250309Z 03004KT 10/02 A3012 RMK A01 T01020016  RH  055%=      5-min Rain = 0
KME1 250310Z 03004KT 10/02 A3012 RMK A01 T01010015  RH  055%=      5-min Rain = 0
KME1 250311Z 03004KT 10/02 A3012 RMK A01 T01000015  RH  055%=      5-min Rain = 0
KME1 250312Z 02004KT 10/01 A3012 RMK A01 T00980014  RH  056%=      5-min Rain = 0
KME1 250313Z 02004KT 10/01 A3012 RMK A01 T00960014  RH  057%=      5-min Rain = 0
KME1 250314Z 03004KT 10/01 A3012 RMK A01 T00950014  RH  057%=      5-min Rain = 0
KME1 250315Z 03004KT 10/02 A3012 RMK A01 T00950015  RH  057%=      5-min Rain = 0
KME1 250316Z 04004KT 09/01 A3012 RMK A01 T00930014  RH  058%=      5-min Rain = 0
KME1 250317Z 04004KT 09/02 A3012 RMK A01 T00930015  RH  058%=      5-min Rain = 0
KME1 250318Z 04004KT 09/02 A3012 RMK A01 T00930015  RH  058%=      5-min Rain = 0
KME1 250319Z 04004KT 09/02 A3012 RMK A01 T00930015  RH  058%=      5-min Rain = 0
KME1 250320Z 04004KT 10/02 A3012 RMK A01 T00950016  RH  058%=      5-min Rain = 0
KME1 250321Z 04004KT 10/02 A3012 RMK A01 T00950015  RH  058%=      5-min Rain = 0
KME1 250322Z 05004KT 10/02 A3012 RMK A01 T00950015  RH  057%=      5-min Rain = 0
KME1 250323Z 05004KT 10/02 A3012 RMK A01 T00960016  RH  057%=      5-min Rain = 0
KME1 250324Z 05004KT 10/02 A3012 RMK A01 T00960016  RH  057%=      5-min Rain = 0
KME1 250325Z 05004KT 10/02 A3012 RMK A01 T00970016  RH  057%=      5-min Rain = 0
KME1 250326Z 04004KT 10/02 A3012 RMK A01 T00970016  RH  057%=      5-min Rain = 0
KME1 250327Z 04004KT 10/02 A3012 RMK A01 T00970016  RH  057%=      5-min Rain = 0
KME1 250328Z 04005KT 10/02 A3012 RMK A01 T00960016  RH  057%=      5-min Rain = 0
KME1 250329Z 04005KT 10/02 A3012 RMK A01 T00950015  RH  058%=      5-min Rain = 0
KME1 250330Z 04004KT 09/02 A3012 RMK A01 T00940015  RH  058%=      5-min Rain = 0
KME1 250331Z 03004KT 09/02 A3012 RMK A01 T00930015  RH  058%=      5-min Rain = 0
KME1 250332Z 03005KT 09/02 A3012 RMK A01 T00930015  RH  058%=      5-min Rain = 0
KME1 250333Z 03004KT 09/02 A3012 RMK A01 T00920015  RH  058%=      5-min Rain = 0
KME1 250334Z 03005KT 09/01 A3012 RMK A01 T00900014  RH  059%=      5-min Rain = 0
KME1 250335Z 03005KT 09/01 A3012 RMK A01 T00890014  RH  059%=      5-min Rain = 0
KME1 250336Z 03005KT 09/02 A3012 RMK A01 T00890015  RH  060%=      5-min Rain = 0
KME1 250337Z 03005KT 09/02 A3012 RMK A01 T00900015  RH  060%=      5-min Rain = 0
KME1 250338Z 02005KT 09/02 A3012 RMK A01 T00900015  RH  059%=      5-min Rain = 0
KME1 250339Z 02004KT 09/02 A3012 RMK A01 T00900015  RH  059%=      5-min Rain = 0
KME1 250340Z 02004KT 09/02 A3012 RMK A01 T00900015  RH  059%=      5-min Rain = 0
KME1 250341Z 03004KT 09/02 A3012 RMK A01 T00890015  RH  060%=      5-min Rain = 0
KME1 250342Z 03003KT 09/02 A3013 RMK A01 T00880015  RH  060%=      5-min Rain = 0
KME1 250343Z 02003KT 09/01 A3013 RMK A01 T00880014  RH  060%=      5-min Rain = 0
KME1 250344Z 02003KT 09/02 A3013 RMK A01 T00890015  RH  060%=      5-min Rain = 0
KME1 250345Z 02004KT 09/02 A3013 RMK A01 T00890015  RH  060%=      5-min Rain = 0
KME1 250346Z 01004KT 09/02 A3012 RMK A01 T00890015  RH  060%=      5-min Rain = 0
KME1 250347Z 01004KT 09/02 A3012 RMK A01 T00890015  RH  060%=      5-min Rain = 0
KME1 250348Z 01004KT 09/02 A3012 RMK A01 T00880015  RH  060%=      5-min Rain = 0
KME1 250349Z 01004KT 09/02 A3012 RMK A01 T00880015  RH  060%=      5-min Rain = 0
KME1 250350Z 01004KT 09/02 A3012 RMK A01 T00870015  RH  060%=      5-min Rain = 0
KME1 250351Z 01003KT 09/02 A3012 RMK A01 T00870015  RH  061%=      5-min Rain = 0
KME1 250352Z 01003KT 09/01 A3013 RMK A01 T00870014  RH  060%=      5-min Rain = 0
KME1 250353Z 01003KT 09/01 A3013 RMK A01 T00870014  RH  060%=      5-min Rain = 0
KME1 250354Z 01003KT 09/01 A3013 RMK A01 T00870014  RH  060%=      5-min Rain = 0
KME1 250355Z 02003KT 09/01 A3013 RMK A01 T00860013  RH  060%=      5-min Rain = 0
KME1 250356Z 02004KT 09/01 A3013 RMK A01 T00870014  RH  060%=      5-min Rain = 0
KME1 250357Z 02004KT 09/01 A3013 RMK A01 T00870013  RH  060%=      5-min Rain = 0
KME1 250358Z 02004KT 09/01 A3013 RMK A01 T00870013  RH  060%=      5-min Rain = 0
KME1 250359Z 02004KT 09/01 A3013 RMK A01 T00870013  RH  060%=      5-min Rain = 0
KME1 250400Z 02004KT 09/01 A3013 RMK A01 T00870013  RH  060%=      5-min Rain = 0
KME1 250401Z 02005KT 09/01 A3013 RMK A01 T00860012  RH  060%=      5-min Rain = 0
KME1 250402Z 02005KT 09/01 A3013 RMK A01 T00850012  RH  060%=      5-min Rain = 0
KME1 250403Z 02005KT 08/01 A3013 RMK A01 T00840012  RH  060%=      5-min Rain = 0
KME1 250404Z 02005KT 08/01 A3013 RMK A01 T00830011  RH  061%=      5-min Rain = 0
KME1 250405Z 01005KT 08/01 A3013 RMK A01 T00820011  RH  061%=      5-min Rain = 0
KME1 250406Z 01005KT 08/01 A3013 RMK A01 T00810011  RH  061%=      5-min Rain = 0
KME1 250407Z 02005KT 08/01 A3013 RMK A01 T00800011  RH  062%=      5-min Rain = 0
KME1 250408Z 01005KT 08/01 A3013 RMK A01 T00790011  RH  062%=      5-min Rain = 0
KME1 250409Z 02005KT 08/01 A3013 RMK A01 T00780011  RH  062%=      5-min Rain = 0
KME1 250410Z 02005KT 08/01 A3013 RMK A01 T00780011  RH  063%=      5-min Rain = 0
KME1 250411Z 02005KT 08/01 A3014 RMK A01 T00770010  RH  063%=      5-min Rain = 0
KME1 250412Z 02005KT 08/01 A3014 RMK A01 T00770010  RH  063%=      5-min Rain = 0
KME1 250413Z 03005KT 08/01 A3014 RMK A01 T00780011  RH  062%=      5-min Rain = 0
KME1 250414Z 02005KT 08/01 A3014 RMK A01 T00780010  RH  062%=      5-min Rain = 0
KME1 250415Z 03005KT 08/01 A3014 RMK A01 T00780010  RH  062%=      5-min Rain = 0
KME1 250416Z 02005KT 08/01 A3014 RMK A01 T00780010  RH  062%=      5-min Rain = 0
KME1 250417Z 02005KT 08/01 A3014 RMK A01 T00790010  RH  062%=      5-min Rain = 0
KME1 250418Z 02005KT 08/01 A3014 RMK A01 T00790010  RH  062%=      5-min Rain = 0
KME1 250419Z 02005KT 08/01 A3014 RMK A01 T00790010  RH  062%=      5-min Rain = 0
KME1 250420Z 02005KT 08/01 A3014 RMK A01 T00790010  RH  062%=      5-min Rain = 0
KME1 250421Z 03004KT 08/01 A3014 RMK A01 T00800011  RH  062%=      5-min Rain = 0
KME1 250422Z 02005KT 08/01 A3014 RMK A01 T00800010  RH  062%=      5-min Rain = 0
KME1 250423Z 02004KT 08/01 A3014 RMK A01 T00800010  RH  062%=      5-min Rain = 0
KME1 250424Z 03004KT 08/01 A3014 RMK A01 T00800011  RH  062%=      5-min Rain = 0
KME1 250425Z 02004KT 08/01 A3014 RMK A01 T00790010  RH  062%=      5-min Rain = 0
KME1 250426Z 02004KT 08/01 A3014 RMK A01 T00790010  RH  062%=      5-min Rain = 0
KME1 250427Z 02005KT 08/01 A3014 RMK A01 T00790010  RH  062%=      5-min Rain = 0
KME1 250428Z 02005KT 08/01 A3014 RMK A01 T00790010  RH  062%=      5-min Rain = 0
KME1 250429Z 02004KT 08/01 A3014 RMK A01 T00790010  RH  062%=      5-min Rain = 0
KME1 250430Z 02004KT 08/01 A3014 RMK A01 T00780010  RH  062%=      5-min Rain = 0
KME1 250431Z 02005KT 08/01 A3014 RMK A01 T00780010  RH  062%=      5-min Rain = 0
KME1 250432Z 02005KT 08/01 A3014 RMK A01 T00770010  RH  062%=      5-min Rain = 0
KME1 250433Z 02005KT 08/01 A3014 RMK A01 T00770010  RH  062%=      5-min Rain = 0
KME1 250434Z 02005KT 08/01 A3014 RMK A01 T00770010  RH  062%=      5-min Rain = 0
KME1 250435Z 02005KT 08/01 A3014 RMK A01 T00770010  RH  062%=      5-min Rain = 0
KME1 250436Z 02005KT 08/01 A3014 RMK A01 T00770010  RH  063%=      5-min Rain = 0
KME1 250437Z 01005KT 08/01 A3014 RMK A01 T00770010  RH  063%=      5-min Rain = 0
KME1 250438Z 01005KT 08/01 A3014 RMK A01 T00770010  RH  063%=      5-min Rain = 0
KME1 250439Z 01005KT 08/01 A3014 RMK A01 T00760010  RH  063%=      5-min Rain = 0
KME1 250440Z 02005KT 08/01 A3014 RMK A01 T00760010  RH  063%=      5-min Rain = 0
KME1 250441Z 02005KT 08/01 A3014 RMK A01 T00750011  RH  063%=      5-min Rain = 0
KME1 250442Z 01005KT 08/01 A3014 RMK A01 T00750010  RH  064%=      5-min Rain = 0
KME1 250443Z 01005KT 07/01 A3014 RMK A01 T00740010  RH  064%=      5-min Rain = 0
KME1 250444Z 02005KT 07/01 A3014 RMK A01 T00740010  RH  064%=      5-min Rain = 0
KME1 250445Z 02005KT 07/01 A3014 RMK A01 T00740011  RH  064%=      5-min Rain = 0
KME1 250446Z 02004KT 07/01 A3014 RMK A01 T00740011  RH  064%=      5-min Rain = 0
KME1 250447Z 03004KT 07/01 A3014 RMK A01 T00740011  RH  064%=      5-min Rain = 0
KME1 250448Z 03004KT 08/01 A3014 RMK A01 T00750012  RH  064%=      5-min Rain = 0
KME1 250449Z 03004KT 08/01 A3014 RMK A01 T00760011  RH  064%=      5-min Rain = 0
KME1 250450Z 03004KT 08/01 A3014 RMK A01 T00750011  RH  064%=      5-min Rain = 0
KME1 250451Z 04004KT 08/01 A3014 RMK A01 T00760012  RH  064%=      5-min Rain = 0
KME1 250452Z 03003KT 08/01 A3015 RMK A01 T00760011  RH  063%=      5-min Rain = 0
KME1 250453Z 04003KT 08/01 A3015 RMK A01 T00770011  RH  063%=      5-min Rain = 0
KME1 250454Z 04003KT 08/01 A3015 RMK A01 T00750011  RH  063%=      5-min Rain = 0
KME1 250455Z 04003KT 08/01 A3015 RMK A01 T00750011  RH  064%=      5-min Rain = 0
KME1 250456Z 04003KT 08/01 A3015 RMK A01 T00750010  RH  064%=      5-min Rain = 0
KME1 250457Z 04003KT 08/01 A3015 RMK A01 T00750011  RH  064%=      5-min Rain = 0
KME1 250458Z 04003KT 08/01 A3015 RMK A01 T00750010  RH  064%=      5-min Rain = 0
KME1 250459Z 04003KT 07/01 A3015 RMK A01 T00740010  RH  064%=      5-min Rain = 0
KME1 250500Z 04003KT 07/01 A3015 RMK A01 T00740010  RH  064%=      5-min Rain = 0
KME1 250501Z 04003KT 07/01 A3015 RMK A01 T00740010  RH  064%=      5-min Rain = 0
KME1 250502Z 04003KT 07/01 A3015 RMK A01 T00740010  RH  064%=      5-min Rain = 0
KME1 250503Z 05003KT 08/01 A3015 RMK A01 T00750010  RH  064%=      5-min Rain = 0
KME1 250504Z 06003KT 08/01 A3015 RMK A01 T00750010  RH  063%=      5-min Rain = 0
KME1 250505Z 06003KT 08/01 A3016 RMK A01 T00760010  RH  063%=      5-min Rain = 0
KME1 250506Z 06003KT 08/01 A3016 RMK A01 T00760010  RH  063%=      5-min Rain = 0
KME1 250507Z 06003KT 08/01 A3016 RMK A01 T00760010  RH  063%=      5-min Rain = 0
KME1 250508Z 06003KT 08/01 A3016 RMK A01 T00760010  RH  063%=      5-min Rain = 0
KME1 250509Z 06002KT 08/01 A3016 RMK A01 T00760010  RH  063%=      5-min Rain = 0
KME1 250510Z 06002KT 08/01 A3016 RMK A01 T00760010  RH  063%=      5-min Rain = 0
KME1 250511Z 06002KT 08/01 A3016 RMK A01 T00760009  RH  063%=      5-min Rain = 0
KME1 250512Z 05002KT 08/01 A3016 RMK A01 T00760010  RH  063%=      5-min Rain = 0
KME1 250513Z 04002KT 08/01 A3016 RMK A01 T00760010  RH  063%=      5-min Rain = 0
KME1 250514Z 04002KT 08/01 A3016 RMK A01 T00760009  RH  063%=      5-min Rain = 0
KME1 250515Z 04002KT 08/01 A3016 RMK A01 T00760009  RH  063%=      5-min Rain = 0
KME1 250516Z 04002KT 08/01 A3016 RMK A01 T00760009  RH  063%=      5-min Rain = 0
KME1 250517Z 04002KT 08/01 A3016 RMK A01 T00770010  RH  062%=      5-min Rain = 0
KME1 250518Z 04003KT 08/01 A3016 RMK A01 T00770010  RH  062%=      5-min Rain = 0
KME1 250519Z 04003KT 08/01 A3016 RMK A01 T00770009  RH  062%=      5-min Rain = 0
KME1 250520Z 04003KT 08/01 A3016 RMK A01 T00780010  RH  062%=      5-min Rain = 0
KME1 250521Z 04003KT 08/01 A3016 RMK A01 T00780010  RH  062%=      5-min Rain = 0
KME1 250522Z 04003KT 08/01 A3016 RMK A01 T00790010  RH  062%=      5-min Rain = 0
KME1 250523Z 05003KT 08/01 A3016 RMK A01 T00790010  RH  061%=      5-min Rain = 0
KME1 250524Z 04004KT 08/01 A3016 RMK A01 T00800010  RH  061%=      5-min Rain = 0
KME1 250525Z 04004KT 08/01 A3016 RMK A01 T00800010  RH  061%=      5-min Rain = 0
KME1 250526Z 04004KT 08/01 A3016 RMK A01 T00790009  RH  061%=      5-min Rain = 0
KME1 250527Z 04004KT 08/01 A3016 RMK A01 T00780009  RH  062%=      5-min Rain = 0
KME1 250528Z 04004KT 08/01 A3016 RMK A01 T00770010  RH  062%=      5-min Rain = 0
KME1 250529Z 03004KT 08/01 A3016 RMK A01 T00770010  RH  062%=      5-min Rain = 0
KME1 250530Z 03004KT 08/01 A3016 RMK A01 T00770010  RH  062%=      5-min Rain = 0
KME1 250531Z 03003KT 08/01 A3016 RMK A01 T00770010  RH  062%=      5-min Rain = 0
KME1 250532Z 02003KT 08/01 A3016 RMK A01 T00770010  RH  062%=      5-min Rain = 0
KME1 250533Z 02004KT 08/01 A3016 RMK A01 T00770010  RH  062%=      5-min Rain = 0
KME1 250534Z 03003KT 08/01 A3016 RMK A01 T00770010  RH  062%=      5-min Rain = 0
KME1 250535Z 03003KT 08/01 A3016 RMK A01 T00760009  RH  063%=      5-min Rain = 0
KME1 250536Z 03003KT 08/01 A3016 RMK A01 T00750009  RH  063%=      5-min Rain = 0
KME1 250537Z 04003KT 07/01 A3016 RMK A01 T00740009  RH  063%=      5-min Rain = 0
KME1 250538Z 04003KT 07/01 A3016 RMK A01 T00740009  RH  063%=      5-min Rain = 0
KME1 250539Z 04003KT 07/01 A3016 RMK A01 T00740009  RH  064%=      5-min Rain = 0
KME1 250540Z 04002KT 07/01 A3016 RMK A01 T00740009  RH  064%=      5-min Rain = 0
KME1 250541Z 04003KT 07/01 A3016 RMK A01 T00740010  RH  064%=      5-min Rain = 0
KME1 250542Z 04003KT 07/01 A3016 RMK A01 T00740009  RH  063%=      5-min Rain = 0
KME1 250543Z 03002KT 08/01 A3016 RMK A01 T00750009  RH  063%=      5-min Rain = 0
KME1 250544Z 03002KT 07/01 A3016 RMK A01 T00740009  RH  063%=      5-min Rain = 0
KME1 250545Z 04002KT 07/01 A3017 RMK A01 T00740009  RH  063%=      5-min Rain = 0
KME1 250546Z 04002KT 07/01 A3017 RMK A01 T00740009  RH  064%=      5-min Rain = 0
KME1 250547Z 03002KT 07/01 A3017 RMK A01 T00730008  RH  064%=      5-min Rain = 0
KME1 250548Z 03002KT 07/01 A3016 RMK A01 T00720008  RH  064%=      5-min Rain = 0
KME1 250549Z 03002KT 07/01 A3016 RMK A01 T00710008  RH  064%=      5-min Rain = 0
KME1 250550Z 03002KT 07/01 A3016 RMK A01 T00720009  RH  064%=      5-min Rain = 0
KME1 250551Z 03002KT 07/01 A3016 RMK A01 T00720009  RH  064%=      5-min Rain = 0
KME1 250552Z 04002KT 07/01 A3016 RMK A01 T00720009  RH  064%=      5-min Rain = 0
KME1 250553Z 04002KT 07/01 A3016 RMK A01 T00720009  RH  064%=      5-min Rain = 0
KME1 250554Z 05002KT 07/01 A3016 RMK A01 T00720009  RH  064%=      5-min Rain = 0
KME1 250555Z 06002KT 07/01 A3016 RMK A01 T00720009  RH  064%=      5-min Rain = 0
KME1 250556Z 06002KT 07/01 A3016 RMK A01 T00720009  RH  064%=      5-min Rain = 0
KME1 250557Z 06002KT 07/01 A3016 RMK A01 T00720008  RH  064%=      5-min Rain = 0
KME1 250558Z 06002KT 07/01 A3016 RMK A01 T00710008  RH  064%=      5-min Rain = 0
KME1 250559Z 06002KT 07/01 A3016 RMK A01 T00690008  RH  065%=      5-min Rain = 0

Page generated in 0.0634 seconds.